<?xml version="1.0" encoding="UTF-8" standalone="no" ?>
<gpx xmlns="http://www.topografix.com/GPX/1/1" xmlns:xsi="http://www.w3.org/2001/XMLSchema-instance" xsi:schemaLocation="http://www.topografix.com/GPX/1/1 http://www.topografix.com/GPX/1/1/gpx.xsd" version="1.1" creator="VisuGPX - https://www.visugpx.com">
  <metadata>
    <name>10344086-Transv West 19 variante finale GPX</name>
  </metadata>
  <trk>
    <name><![CDATA[10344086-Transv West 19 variante finale GPX]]></name>
    <trkseg>
      <trkpt lat="43.75607" lon="6.7622">
        <ele>1350</ele>
        <time>2019-10-03T07:50:21Z</time>
      </trkpt>
      <trkpt lat="43.75521" lon="6.76341">
        <ele>1357</ele>
        <time>2019-10-03T07:50:50Z</time>
      </trkpt>
      <trkpt lat="43.75641" lon="6.76594">
        <ele>1376</ele>
        <time>2019-10-03T07:51:41Z</time>
      </trkpt>
      <trkpt lat="43.75733" lon="6.76576">
        <ele>1359</ele>
        <time>2019-10-03T07:52:02Z</time>
      </trkpt>
      <trkpt lat="43.75821" lon="6.76647">
        <ele>1366</ele>
        <time>2019-10-03T07:52:26Z</time>
      </trkpt>
      <trkpt lat="43.75834" lon="6.76552">
        <ele>1364</ele>
        <time>2019-10-03T07:52:42Z</time>
      </trkpt>
      <trkpt lat="43.75794" lon="6.7659">
        <ele>1363</ele>
        <time>2019-10-03T07:52:54Z</time>
      </trkpt>
      <trkpt lat="43.75803" lon="6.76539">
        <ele>1360</ele>
        <time>2019-10-03T07:53:03Z</time>
      </trkpt>
      <trkpt lat="43.7577" lon="6.76565">
        <ele>1359</ele>
        <time>2019-10-03T07:53:12Z</time>
      </trkpt>
      <trkpt lat="43.75782" lon="6.76512">
        <ele>1356</ele>
        <time>2019-10-03T07:53:21Z</time>
      </trkpt>
      <trkpt lat="43.75713" lon="6.76377">
        <ele>1349</ele>
        <time>2019-10-03T07:53:49Z</time>
      </trkpt>
      <trkpt lat="43.75696" lon="6.76285">
        <ele>1348</ele>
        <time>2019-10-03T07:54:05Z</time>
      </trkpt>
      <trkpt lat="43.75652" lon="6.76271">
        <ele>1349</ele>
        <time>2019-10-03T07:54:15Z</time>
      </trkpt>
      <trkpt lat="43.75605" lon="6.76187">
        <ele>1352</ele>
        <time>2019-10-03T07:54:33Z</time>
      </trkpt>
      <trkpt lat="43.75565" lon="6.76188">
        <ele>1353</ele>
        <time>2019-10-03T07:54:43Z</time>
      </trkpt>
      <trkpt lat="43.75543" lon="6.76279">
        <ele>1353</ele>
        <time>2019-10-03T07:54:59Z</time>
      </trkpt>
      <trkpt lat="43.75412" lon="6.76242">
        <ele>1354</ele>
        <time>2019-10-03T07:55:30Z</time>
      </trkpt>
      <trkpt lat="43.75416" lon="6.76119">
        <ele>1346</ele>
        <time>2019-10-03T07:55:51Z</time>
      </trkpt>
      <trkpt lat="43.75302" lon="6.75967">
        <ele>1338</ele>
        <time>2019-10-03T07:56:28Z</time>
      </trkpt>
      <trkpt lat="43.75197" lon="6.75672">
        <ele>1310</ele>
        <time>2019-10-03T07:57:23Z</time>
      </trkpt>
      <trkpt lat="43.75042" lon="6.75412">
        <ele>1252</ele>
        <time>2019-10-03T07:58:20Z</time>
      </trkpt>
      <trkpt lat="43.74902" lon="6.75274">
        <ele>1208</ele>
        <time>2019-10-03T07:59:00Z</time>
      </trkpt>
      <trkpt lat="43.748" lon="6.75258">
        <ele>1178</ele>
        <time>2019-10-03T07:59:24Z</time>
      </trkpt>
      <trkpt lat="43.74692" lon="6.75329">
        <ele>1168</ele>
        <time>2019-10-03T07:59:52Z</time>
      </trkpt>
      <trkpt lat="43.74697" lon="6.7522">
        <ele>1150</ele>
        <time>2019-10-03T08:00:11Z</time>
      </trkpt>
      <trkpt lat="43.74641" lon="6.75178">
        <ele>1129</ele>
        <time>2019-10-03T08:00:25Z</time>
      </trkpt>
      <trkpt lat="43.74512" lon="6.75206">
        <ele>1115</ele>
        <time>2019-10-03T08:00:56Z</time>
      </trkpt>
      <trkpt lat="43.74443" lon="6.75211">
        <ele>1100</ele>
        <time>2019-10-03T08:01:12Z</time>
      </trkpt>
      <trkpt lat="43.74413" lon="6.75258">
        <ele>1100</ele>
        <time>2019-10-03T08:01:23Z</time>
      </trkpt>
      <trkpt lat="43.7437" lon="6.75302">
        <ele>1092</ele>
        <time>2019-10-03T08:01:35Z</time>
      </trkpt>
      <trkpt lat="43.74358" lon="6.75097">
        <ele>1060</ele>
        <time>2019-10-03T08:02:10Z</time>
      </trkpt>
      <trkpt lat="43.74365" lon="6.74985">
        <ele>1047</ele>
        <time>2019-10-03T08:02:29Z</time>
      </trkpt>
      <trkpt lat="43.74361" lon="6.74926">
        <ele>1044</ele>
        <time>2019-10-03T08:02:39Z</time>
      </trkpt>
      <trkpt lat="43.7433" lon="6.74845">
        <ele>1041</ele>
        <time>2019-10-03T08:02:54Z</time>
      </trkpt>
      <trkpt lat="43.74274" lon="6.74778">
        <ele>1030</ele>
        <time>2019-10-03T08:03:12Z</time>
      </trkpt>
      <trkpt lat="43.74226" lon="6.74768">
        <ele>1025</ele>
        <time>2019-10-03T08:03:23Z</time>
      </trkpt>
      <trkpt lat="43.74223" lon="6.74379">
        <ele>1034</ele>
        <time>2019-10-03T08:04:29Z</time>
      </trkpt>
      <trkpt lat="43.74196" lon="6.74375">
        <ele>1036</ele>
        <time>2019-10-03T08:04:35Z</time>
      </trkpt>
      <trkpt lat="43.74205" lon="6.74191">
        <ele>1034</ele>
        <time>2019-10-03T08:05:06Z</time>
      </trkpt>
      <trkpt lat="43.74195" lon="6.74019">
        <ele>1037</ele>
        <time>2019-10-03T08:05:35Z</time>
      </trkpt>
      <trkpt lat="43.74194" lon="6.737">
        <ele>1044</ele>
        <time>2019-10-03T08:06:29Z</time>
      </trkpt>
      <trkpt lat="43.74196" lon="6.73558">
        <ele>1047</ele>
        <time>2019-10-03T08:06:53Z</time>
      </trkpt>
      <trkpt lat="43.74188" lon="6.73355">
        <ele>1050</ele>
        <time>2019-10-03T08:07:27Z</time>
      </trkpt>
      <trkpt lat="43.74059" lon="6.72657">
        <ele>1079</ele>
        <time>2019-10-03T08:09:29Z</time>
      </trkpt>
      <trkpt lat="43.73992" lon="6.72563">
        <ele>1102</ele>
        <time>2019-10-03T08:09:51Z</time>
      </trkpt>
      <trkpt lat="43.73966" lon="6.71917">
        <ele>1141</ele>
        <time>2019-10-03T08:11:40Z</time>
      </trkpt>
      <trkpt lat="43.73934" lon="6.71654">
        <ele>1161</ele>
        <time>2019-10-03T08:12:25Z</time>
      </trkpt>
      <trkpt lat="43.73953" lon="6.71384">
        <ele>1166</ele>
        <time>2019-10-03T08:13:11Z</time>
      </trkpt>
      <trkpt lat="43.73894" lon="6.71545">
        <ele>1165</ele>
        <time>2019-10-03T08:13:41Z</time>
      </trkpt>
      <trkpt lat="43.73703" lon="6.72119">
        <ele>1176</ele>
        <time>2019-10-03T08:15:28Z</time>
      </trkpt>
      <trkpt lat="43.73709" lon="6.72258">
        <ele>1176</ele>
        <time>2019-10-03T08:15:52Z</time>
      </trkpt>
      <trkpt lat="43.73672" lon="6.7232">
        <ele>1178</ele>
        <time>2019-10-03T08:16:05Z</time>
      </trkpt>
      <trkpt lat="43.73707" lon="6.72419">
        <ele>1177</ele>
        <time>2019-10-03T08:16:24Z</time>
      </trkpt>
      <trkpt lat="43.73703" lon="6.72798">
        <ele>1188</ele>
        <time>2019-10-03T08:17:28Z</time>
      </trkpt>
      <trkpt lat="43.73674" lon="6.72889">
        <ele>1195</ele>
        <time>2019-10-03T08:17:44Z</time>
      </trkpt>
      <trkpt lat="43.7374" lon="6.72989">
        <ele>1191</ele>
        <time>2019-10-03T08:18:07Z</time>
      </trkpt>
      <trkpt lat="43.73758" lon="6.73148">
        <ele>1198</ele>
        <time>2019-10-03T08:18:34Z</time>
      </trkpt>
      <trkpt lat="43.73765" lon="6.73381">
        <ele>1209</ele>
        <time>2019-10-03T08:19:14Z</time>
      </trkpt>
      <trkpt lat="43.73728" lon="6.73575">
        <ele>1226</ele>
        <time>2019-10-03T08:19:48Z</time>
      </trkpt>
      <trkpt lat="43.73762" lon="6.73742">
        <ele>1238</ele>
        <time>2019-10-03T08:20:17Z</time>
      </trkpt>
      <trkpt lat="43.7364" lon="6.73678">
        <ele>1243</ele>
        <time>2019-10-03T08:20:47Z</time>
      </trkpt>
      <trkpt lat="43.73524" lon="6.73429">
        <ele>1250</ele>
        <time>2019-10-03T08:21:37Z</time>
      </trkpt>
      <trkpt lat="43.73437" lon="6.73142">
        <ele>1257</ele>
        <time>2019-10-03T08:22:30Z</time>
      </trkpt>
      <trkpt lat="43.73341" lon="6.73015">
        <ele>1261</ele>
        <time>2019-10-03T08:23:01Z</time>
      </trkpt>
      <trkpt lat="43.73232" lon="6.73003">
        <ele>1259</ele>
        <time>2019-10-03T08:23:26Z</time>
      </trkpt>
      <trkpt lat="43.73119" lon="6.73026">
        <ele>1256</ele>
        <time>2019-10-03T08:23:53Z</time>
      </trkpt>
      <trkpt lat="43.73073" lon="6.73169">
        <ele>1261</ele>
        <time>2019-10-03T08:24:20Z</time>
      </trkpt>
      <trkpt lat="43.72942" lon="6.7326">
        <ele>1262</ele>
        <time>2019-10-03T08:24:54Z</time>
      </trkpt>
      <trkpt lat="43.72889" lon="6.73456">
        <ele>1261</ele>
        <time>2019-10-03T08:25:29Z</time>
      </trkpt>
      <trkpt lat="43.72758" lon="6.73447">
        <ele>1269</ele>
        <time>2019-10-03T08:26:00Z</time>
      </trkpt>
      <trkpt lat="43.72636" lon="6.73811">
        <ele>1282</ele>
        <time>2019-10-03T08:27:07Z</time>
      </trkpt>
      <trkpt lat="43.72576" lon="6.73854">
        <ele>1289</ele>
        <time>2019-10-03T08:27:23Z</time>
      </trkpt>
      <trkpt lat="43.7243" lon="6.73709">
        <ele>1299</ele>
        <time>2019-10-03T08:28:05Z</time>
      </trkpt>
      <trkpt lat="43.72402" lon="6.73614">
        <ele>1302</ele>
        <time>2019-10-03T08:28:22Z</time>
      </trkpt>
      <trkpt lat="43.723" lon="6.73527">
        <ele>1303</ele>
        <time>2019-10-03T08:28:50Z</time>
      </trkpt>
      <trkpt lat="43.7204" lon="6.73403">
        <ele>1298</ele>
        <time>2019-10-03T08:29:55Z</time>
      </trkpt>
      <trkpt lat="43.71965" lon="6.73426">
        <ele>1295</ele>
        <time>2019-10-03T08:30:13Z</time>
      </trkpt>
      <trkpt lat="43.71907" lon="6.73409">
        <ele>1293</ele>
        <time>2019-10-03T08:30:26Z</time>
      </trkpt>
      <trkpt lat="43.7185" lon="6.73212">
        <ele>1291</ele>
        <time>2019-10-03T08:31:02Z</time>
      </trkpt>
      <trkpt lat="43.71777" lon="6.73164">
        <ele>1279</ele>
        <time>2019-10-03T08:31:21Z</time>
      </trkpt>
      <trkpt lat="43.71563" lon="6.72981">
        <ele>1238</ele>
        <time>2019-10-03T08:32:20Z</time>
      </trkpt>
      <trkpt lat="43.71493" lon="6.72837">
        <ele>1215</ele>
        <time>2019-10-03T08:32:49Z</time>
      </trkpt>
      <trkpt lat="43.71329" lon="6.72527">
        <ele>1159</ele>
        <time>2019-10-03T08:33:54Z</time>
      </trkpt>
      <trkpt lat="43.71205" lon="6.72484">
        <ele>1139</ele>
        <time>2019-10-03T08:34:24Z</time>
      </trkpt>
      <trkpt lat="43.71052" lon="6.72502">
        <ele>1121</ele>
        <time>2019-10-03T08:35:00Z</time>
      </trkpt>
      <trkpt lat="43.70857" lon="6.72605">
        <ele>1090</ele>
        <time>2019-10-03T08:35:49Z</time>
      </trkpt>
      <trkpt lat="43.7057" lon="6.72606">
        <ele>1020</ele>
        <time>2019-10-03T08:36:56Z</time>
      </trkpt>
      <trkpt lat="43.70424" lon="6.72898">
        <ele>979</ele>
        <time>2019-10-03T08:37:55Z</time>
      </trkpt>
      <trkpt lat="43.7041" lon="6.7306">
        <ele>956</ele>
        <time>2019-10-03T08:38:23Z</time>
      </trkpt>
      <trkpt lat="43.70436" lon="6.73159">
        <ele>954</ele>
        <time>2019-10-03T08:38:41Z</time>
      </trkpt>
      <trkpt lat="43.70403" lon="6.73248">
        <ele>933</ele>
        <time>2019-10-03T08:38:58Z</time>
      </trkpt>
      <trkpt lat="43.70382" lon="6.73355">
        <ele>918</ele>
        <time>2019-10-03T08:39:16Z</time>
      </trkpt>
      <trkpt lat="43.70336" lon="6.73348">
        <ele>916</ele>
        <time>2019-10-03T08:39:27Z</time>
      </trkpt>
      <trkpt lat="43.70423" lon="6.73427">
        <ele>910</ele>
        <time>2019-10-03T08:39:52Z</time>
      </trkpt>
      <trkpt lat="43.7062" lon="6.73504">
        <ele>902</ele>
        <time>2019-10-03T08:40:39Z</time>
      </trkpt>
      <trkpt lat="43.70757" lon="6.7385">
        <ele>880</ele>
        <time>2019-10-03T08:41:46Z</time>
      </trkpt>
      <trkpt lat="43.70881" lon="6.7389">
        <ele>885</ele>
        <time>2019-10-03T08:42:16Z</time>
      </trkpt>
      <trkpt lat="43.70982" lon="6.73993">
        <ele>881</ele>
        <time>2019-10-03T08:42:45Z</time>
      </trkpt>
      <trkpt lat="43.71067" lon="6.74037">
        <ele>886</ele>
        <time>2019-10-03T08:43:06Z</time>
      </trkpt>
      <trkpt lat="43.71095" lon="6.73963">
        <ele>904</ele>
        <time>2019-10-03T08:43:20Z</time>
      </trkpt>
      <trkpt lat="43.71161" lon="6.7394">
        <ele>921</ele>
        <time>2019-10-03T08:43:36Z</time>
      </trkpt>
      <trkpt lat="43.71295" lon="6.74192">
        <ele>936</ele>
        <time>2019-10-03T08:44:29Z</time>
      </trkpt>
      <trkpt lat="43.71238" lon="6.7423">
        <ele>928</ele>
        <time>2019-10-03T08:44:44Z</time>
      </trkpt>
      <trkpt lat="43.71235" lon="6.74368">
        <ele>927</ele>
        <time>2019-10-03T08:45:07Z</time>
      </trkpt>
      <trkpt lat="43.71338" lon="6.74575">
        <ele>941</ele>
        <time>2019-10-03T08:45:49Z</time>
      </trkpt>
      <trkpt lat="43.71562" lon="6.74718">
        <ele>974</ele>
        <time>2019-10-03T08:46:47Z</time>
      </trkpt>
      <trkpt lat="43.71663" lon="6.74751">
        <ele>980</ele>
        <time>2019-10-03T08:47:11Z</time>
      </trkpt>
      <trkpt lat="43.7157" lon="6.74905">
        <ele>971</ele>
        <time>2019-10-03T08:47:45Z</time>
      </trkpt>
      <trkpt lat="43.71753" lon="6.75097">
        <ele>923</ele>
        <time>2019-10-03T08:48:39Z</time>
      </trkpt>
      <trkpt lat="43.71768" lon="6.75039">
        <ele>926</ele>
        <time>2019-10-03T08:48:49Z</time>
      </trkpt>
      <trkpt lat="43.72062" lon="6.75482">
        <ele>883</ele>
        <time>2019-10-03T08:50:31Z</time>
      </trkpt>
      <trkpt lat="43.72165" lon="6.75764">
        <ele>842</ele>
        <time>2019-10-03T08:51:24Z</time>
      </trkpt>
      <trkpt lat="43.7226" lon="6.76164">
        <ele>782</ele>
        <time>2019-10-03T08:52:35Z</time>
      </trkpt>
      <trkpt lat="43.72382" lon="6.76202">
        <ele>768</ele>
        <time>2019-10-03T08:53:04Z</time>
      </trkpt>
      <trkpt lat="43.72368" lon="6.76257">
        <ele>764</ele>
        <time>2019-10-03T08:53:14Z</time>
      </trkpt>
      <trkpt lat="43.72353" lon="6.76293">
        <ele>762</ele>
        <time>2019-10-03T08:53:21Z</time>
      </trkpt>
      <trkpt lat="43.72361" lon="6.76351">
        <ele>764</ele>
        <time>2019-10-03T08:53:31Z</time>
      </trkpt>
      <trkpt lat="43.72391" lon="6.76377">
        <ele>771</ele>
        <time>2019-10-03T08:53:39Z</time>
      </trkpt>
      <trkpt lat="43.72409" lon="6.76566">
        <ele>768</ele>
        <time>2019-10-03T08:54:12Z</time>
      </trkpt>
      <trkpt lat="43.72372" lon="6.7661">
        <ele>760</ele>
        <time>2019-10-03T08:54:23Z</time>
      </trkpt>
      <trkpt lat="43.72334" lon="6.76595">
        <ele>753</ele>
        <time>2019-10-03T08:54:32Z</time>
      </trkpt>
      <trkpt lat="43.72303" lon="6.76654">
        <ele>749</ele>
        <time>2019-10-03T08:54:45Z</time>
      </trkpt>
      <trkpt lat="43.72248" lon="6.76676">
        <ele>739</ele>
        <time>2019-10-03T08:54:58Z</time>
      </trkpt>
      <trkpt lat="43.7227" lon="6.76701">
        <ele>743</ele>
        <time>2019-10-03T08:55:05Z</time>
      </trkpt>
      <trkpt lat="43.72267" lon="6.76752">
        <ele>742</ele>
        <time>2019-10-03T08:55:13Z</time>
      </trkpt>
      <trkpt lat="43.72284" lon="6.76802">
        <ele>742</ele>
        <time>2019-10-03T08:55:22Z</time>
      </trkpt>
      <trkpt lat="43.72322" lon="6.76842">
        <ele>744</ele>
        <time>2019-10-03T08:55:34Z</time>
      </trkpt>
      <trkpt lat="43.72351" lon="6.76867">
        <ele>750</ele>
        <time>2019-10-03T08:55:42Z</time>
      </trkpt>
      <trkpt lat="43.72345" lon="6.76895">
        <ele>752</ele>
        <time>2019-10-03T08:55:47Z</time>
      </trkpt>
      <trkpt lat="43.72292" lon="6.76915">
        <ele>755</ele>
        <time>2019-10-03T08:55:59Z</time>
      </trkpt>
      <trkpt lat="43.72251" lon="6.76908">
        <ele>754</ele>
        <time>2019-10-03T08:56:09Z</time>
      </trkpt>
      <trkpt lat="43.7214" lon="6.76941">
        <ele>771</ele>
        <time>2019-10-03T08:56:36Z</time>
      </trkpt>
      <trkpt lat="43.7197" lon="6.76904">
        <ele>776</ele>
        <time>2019-10-03T08:57:16Z</time>
      </trkpt>
      <trkpt lat="43.71919" lon="6.76877">
        <ele>768</ele>
        <time>2019-10-03T08:57:28Z</time>
      </trkpt>
      <trkpt lat="43.71839" lon="6.76863">
        <ele>760</ele>
        <time>2019-10-03T08:57:47Z</time>
      </trkpt>
      <trkpt lat="43.71773" lon="6.76855">
        <ele>753</ele>
        <time>2019-10-03T08:58:03Z</time>
      </trkpt>
      <trkpt lat="43.71675" lon="6.76812">
        <ele>742</ele>
        <time>2019-10-03T08:58:27Z</time>
      </trkpt>
      <trkpt lat="43.71651" lon="6.76766">
        <ele>729</ele>
        <time>2019-10-03T08:58:36Z</time>
      </trkpt>
      <trkpt lat="43.71589" lon="6.76759">
        <ele>723</ele>
        <time>2019-10-03T08:58:51Z</time>
      </trkpt>
      <trkpt lat="43.71311" lon="6.769">
        <ele>737</ele>
        <time>2019-10-03T09:00:00Z</time>
      </trkpt>
      <trkpt lat="43.71256" lon="6.76903">
        <ele>730</ele>
        <time>2019-10-03T09:00:13Z</time>
      </trkpt>
      <trkpt lat="43.71223" lon="6.76916">
        <ele>737</ele>
        <time>2019-10-03T09:00:21Z</time>
      </trkpt>
      <trkpt lat="43.7113" lon="6.77006">
        <ele>760</ele>
        <time>2019-10-03T09:00:47Z</time>
      </trkpt>
      <trkpt lat="43.71095" lon="6.77086">
        <ele>750</ele>
        <time>2019-10-03T09:01:03Z</time>
      </trkpt>
      <trkpt lat="43.71085" lon="6.77287">
        <ele>792</ele>
        <time>2019-10-03T09:01:37Z</time>
      </trkpt>
      <trkpt lat="43.70848" lon="6.77677">
        <ele>843</ele>
        <time>2019-10-03T09:03:03Z</time>
      </trkpt>
      <trkpt lat="43.70753" lon="6.77855">
        <ele>880</ele>
        <time>2019-10-03T09:03:41Z</time>
      </trkpt>
      <trkpt lat="43.7061" lon="6.77933">
        <ele>882</ele>
        <time>2019-10-03T09:04:16Z</time>
      </trkpt>
      <trkpt lat="43.70532" lon="6.78082">
        <ele>906</ele>
        <time>2019-10-03T09:04:48Z</time>
      </trkpt>
      <trkpt lat="43.70412" lon="6.78268">
        <ele>943</ele>
        <time>2019-10-03T09:05:30Z</time>
      </trkpt>
      <trkpt lat="43.7027" lon="6.7826">
        <ele>936</ele>
        <time>2019-10-03T09:06:03Z</time>
      </trkpt>
      <trkpt lat="43.70541" lon="6.78572">
        <ele>892</ele>
        <time>2019-10-03T09:07:25Z</time>
      </trkpt>
      <trkpt lat="43.70583" lon="6.78728">
        <ele>872</ele>
        <time>2019-10-03T09:07:53Z</time>
      </trkpt>
      <trkpt lat="43.70542" lon="6.78855">
        <ele>843</ele>
        <time>2019-10-03T09:08:17Z</time>
      </trkpt>
      <trkpt lat="43.70562" lon="6.7912">
        <ele>831</ele>
        <time>2019-10-03T09:09:02Z</time>
      </trkpt>
      <trkpt lat="43.70414" lon="6.795">
        <ele>793</ele>
        <time>2019-10-03T09:10:15Z</time>
      </trkpt>
      <trkpt lat="43.70497" lon="6.796">
        <ele>815</ele>
        <time>2019-10-03T09:10:40Z</time>
      </trkpt>
      <trkpt lat="43.7056" lon="6.7961">
        <ele>823</ele>
        <time>2019-10-03T09:10:55Z</time>
      </trkpt>
      <trkpt lat="43.70648" lon="6.79618">
        <ele>823</ele>
        <time>2019-10-03T09:11:16Z</time>
      </trkpt>
      <trkpt lat="43.70831" lon="6.79423">
        <ele>861</ele>
        <time>2019-10-03T09:12:10Z</time>
      </trkpt>
      <trkpt lat="43.70921" lon="6.79445">
        <ele>860</ele>
        <time>2019-10-03T09:12:31Z</time>
      </trkpt>
      <trkpt lat="43.71061" lon="6.79546">
        <ele>856</ele>
        <time>2019-10-03T09:13:08Z</time>
      </trkpt>
      <trkpt lat="43.71142" lon="6.79799">
        <ele>843</ele>
        <time>2019-10-03T09:13:55Z</time>
      </trkpt>
      <trkpt lat="43.71191" lon="6.79862">
        <ele>842</ele>
        <time>2019-10-03T09:14:10Z</time>
      </trkpt>
      <trkpt lat="43.71305" lon="6.79921">
        <ele>829</ele>
        <time>2019-10-03T09:14:39Z</time>
      </trkpt>
      <trkpt lat="43.71418" lon="6.79935">
        <ele>811</ele>
        <time>2019-10-03T09:15:05Z</time>
      </trkpt>
      <trkpt lat="43.7149" lon="6.79996">
        <ele>797</ele>
        <time>2019-10-03T09:15:25Z</time>
      </trkpt>
      <trkpt lat="43.71629" lon="6.80126">
        <ele>759</ele>
        <time>2019-10-03T09:16:04Z</time>
      </trkpt>
      <trkpt lat="43.71736" lon="6.8012">
        <ele>751</ele>
        <time>2019-10-03T09:16:29Z</time>
      </trkpt>
      <trkpt lat="43.71817" lon="6.80196">
        <ele>726</ele>
        <time>2019-10-03T09:16:52Z</time>
      </trkpt>
      <trkpt lat="43.717" lon="6.80235">
        <ele>714</ele>
        <time>2019-10-03T09:17:20Z</time>
      </trkpt>
      <trkpt lat="43.71664" lon="6.80305">
        <ele>694</ele>
        <time>2019-10-03T09:17:34Z</time>
      </trkpt>
      <trkpt lat="43.71612" lon="6.80366">
        <ele>682</ele>
        <time>2019-10-03T09:17:50Z</time>
      </trkpt>
      <trkpt lat="43.71574" lon="6.80415">
        <ele>674</ele>
        <time>2019-10-03T09:18:03Z</time>
      </trkpt>
      <trkpt lat="43.7152" lon="6.80376">
        <ele>679</ele>
        <time>2019-10-03T09:18:17Z</time>
      </trkpt>
      <trkpt lat="43.71457" lon="6.80394">
        <ele>671</ele>
        <time>2019-10-03T09:18:32Z</time>
      </trkpt>
      <trkpt lat="43.71412" lon="6.80377">
        <ele>671</ele>
        <time>2019-10-03T09:18:43Z</time>
      </trkpt>
      <trkpt lat="43.71291" lon="6.80379">
        <ele>666</ele>
        <time>2019-10-03T09:19:11Z</time>
      </trkpt>
      <trkpt lat="43.71232" lon="6.8045">
        <ele>646</ele>
        <time>2019-10-03T09:19:29Z</time>
      </trkpt>
      <trkpt lat="43.71042" lon="6.80481">
        <ele>629</ele>
        <time>2019-10-03T09:20:14Z</time>
      </trkpt>
      <trkpt lat="43.7107" lon="6.80582">
        <ele>604</ele>
        <time>2019-10-03T09:20:32Z</time>
      </trkpt>
      <trkpt lat="43.71182" lon="6.80591">
        <ele>599</ele>
        <time>2019-10-03T09:20:58Z</time>
      </trkpt>
      <trkpt lat="43.71132" lon="6.80751">
        <ele>603</ele>
        <time>2019-10-03T09:21:28Z</time>
      </trkpt>
      <trkpt lat="43.70971" lon="6.80722">
        <ele>596</ele>
        <time>2019-10-03T09:22:06Z</time>
      </trkpt>
      <trkpt lat="43.7072" lon="6.80857">
        <ele>623</ele>
        <time>2019-10-03T09:23:09Z</time>
      </trkpt>
      <trkpt lat="43.70555" lon="6.80785">
        <ele>624</ele>
        <time>2019-10-03T09:23:49Z</time>
      </trkpt>
      <trkpt lat="43.70457" lon="6.80527">
        <ele>596</ele>
        <time>2019-10-03T09:24:38Z</time>
      </trkpt>
      <trkpt lat="43.70386" lon="6.80598">
        <ele>629</ele>
        <time>2019-10-03T09:24:59Z</time>
      </trkpt>
      <trkpt lat="43.70294" lon="6.80284">
        <ele>596</ele>
        <time>2019-10-03T09:25:56Z</time>
      </trkpt>
      <trkpt lat="43.70212" lon="6.80287">
        <ele>621</ele>
        <time>2019-10-03T09:26:15Z</time>
      </trkpt>
      <trkpt lat="43.70129" lon="6.80115">
        <ele>594</ele>
        <time>2019-10-03T09:26:50Z</time>
      </trkpt>
      <trkpt lat="43.69978" lon="6.80108">
        <ele>606</ele>
        <time>2019-10-03T09:27:25Z</time>
      </trkpt>
      <trkpt lat="43.69823" lon="6.79981">
        <ele>598</ele>
        <time>2019-10-03T09:28:07Z</time>
      </trkpt>
      <trkpt lat="43.69783" lon="6.79925">
        <ele>576</ele>
        <time>2019-10-03T09:28:21Z</time>
      </trkpt>
      <trkpt lat="43.69744" lon="6.79914">
        <ele>568</ele>
        <time>2019-10-03T09:28:30Z</time>
      </trkpt>
      <trkpt lat="43.69711" lon="6.79948">
        <ele>573</ele>
        <time>2019-10-03T09:28:39Z</time>
      </trkpt>
      <trkpt lat="43.69672" lon="6.79896">
        <ele>570</ele>
        <time>2019-10-03T09:28:52Z</time>
      </trkpt>
      <trkpt lat="43.69564" lon="6.79851">
        <ele>609</ele>
        <time>2019-10-03T09:29:18Z</time>
      </trkpt>
      <trkpt lat="43.69454" lon="6.8023">
        <ele>611</ele>
        <time>2019-10-03T09:30:27Z</time>
      </trkpt>
      <trkpt lat="43.69405" lon="6.80495">
        <ele>597</ele>
        <time>2019-10-03T09:31:14Z</time>
      </trkpt>
      <trkpt lat="43.69359" lon="6.80549">
        <ele>604</ele>
        <time>2019-10-03T09:31:28Z</time>
      </trkpt>
      <trkpt lat="43.69359" lon="6.80604">
        <ele>601</ele>
        <time>2019-10-03T09:31:37Z</time>
      </trkpt>
      <trkpt lat="43.69331" lon="6.80692">
        <ele>600</ele>
        <time>2019-10-03T09:31:53Z</time>
      </trkpt>
      <trkpt lat="43.69402" lon="6.80863">
        <ele>606</ele>
        <time>2019-10-03T09:32:26Z</time>
      </trkpt>
      <trkpt lat="43.69334" lon="6.80968">
        <ele>606</ele>
        <time>2019-10-03T09:32:50Z</time>
      </trkpt>
      <trkpt lat="43.69289" lon="6.81091">
        <ele>612</ele>
        <time>2019-10-03T09:33:14Z</time>
      </trkpt>
      <trkpt lat="43.69298" lon="6.81176">
        <ele>610</ele>
        <time>2019-10-03T09:33:28Z</time>
      </trkpt>
      <trkpt lat="43.69327" lon="6.81215">
        <ele>611</ele>
        <time>2019-10-03T09:33:37Z</time>
      </trkpt>
      <trkpt lat="43.69284" lon="6.81204">
        <ele>611</ele>
        <time>2019-10-03T09:33:48Z</time>
      </trkpt>
      <trkpt lat="43.69207" lon="6.81299">
        <ele>617</ele>
        <time>2019-10-03T09:34:12Z</time>
      </trkpt>
      <trkpt lat="43.69173" lon="6.81315">
        <ele>620</ele>
        <time>2019-10-03T09:34:20Z</time>
      </trkpt>
      <trkpt lat="43.69161" lon="6.81345">
        <ele>621</ele>
        <time>2019-10-03T09:34:26Z</time>
      </trkpt>
      <trkpt lat="43.6913" lon="6.81353">
        <ele>621</ele>
        <time>2019-10-03T09:34:33Z</time>
      </trkpt>
      <trkpt lat="43.69122" lon="6.81255">
        <ele>620</ele>
        <time>2019-10-03T09:34:50Z</time>
      </trkpt>
      <trkpt lat="43.69097" lon="6.81199">
        <ele>619</ele>
        <time>2019-10-03T09:35:01Z</time>
      </trkpt>
      <trkpt lat="43.69078" lon="6.812">
        <ele>620</ele>
        <time>2019-10-03T09:35:06Z</time>
      </trkpt>
      <trkpt lat="43.69075" lon="6.81218">
        <ele>620</ele>
        <time>2019-10-03T09:35:09Z</time>
      </trkpt>
      <trkpt lat="43.69051" lon="6.81197">
        <ele>621</ele>
        <time>2019-10-03T09:35:15Z</time>
      </trkpt>
      <trkpt lat="43.69023" lon="6.81201">
        <ele>622</ele>
        <time>2019-10-03T09:35:22Z</time>
      </trkpt>
      <trkpt lat="43.68951" lon="6.81293">
        <ele>626</ele>
        <time>2019-10-03T09:35:45Z</time>
      </trkpt>
      <trkpt lat="43.68901" lon="6.81239">
        <ele>630</ele>
        <time>2019-10-03T09:36:00Z</time>
      </trkpt>
      <trkpt lat="43.68881" lon="6.81018">
        <ele>640</ele>
        <time>2019-10-03T09:36:37Z</time>
      </trkpt>
      <trkpt lat="43.68878" lon="6.8093">
        <ele>642</ele>
        <time>2019-10-03T09:36:52Z</time>
      </trkpt>
      <trkpt lat="43.68856" lon="6.80858">
        <ele>644</ele>
        <time>2019-10-03T09:37:05Z</time>
      </trkpt>
      <trkpt lat="43.68824" lon="6.80858">
        <ele>647</ele>
        <time>2019-10-03T09:37:13Z</time>
      </trkpt>
      <trkpt lat="43.68802" lon="6.80866">
        <ele>650</ele>
        <time>2019-10-03T09:37:18Z</time>
      </trkpt>
      <trkpt lat="43.68783" lon="6.80906">
        <ele>653</ele>
        <time>2019-10-03T09:37:26Z</time>
      </trkpt>
      <trkpt lat="43.68783" lon="6.80945">
        <ele>654</ele>
        <time>2019-10-03T09:37:33Z</time>
      </trkpt>
      <trkpt lat="43.68699" lon="6.81034">
        <ele>666</ele>
        <time>2019-10-03T09:37:57Z</time>
      </trkpt>
      <trkpt lat="43.68609" lon="6.8116">
        <ele>671</ele>
        <time>2019-10-03T09:38:27Z</time>
      </trkpt>
      <trkpt lat="43.68479" lon="6.81184">
        <ele>680</ele>
        <time>2019-10-03T09:38:58Z</time>
      </trkpt>
      <trkpt lat="43.68443" lon="6.81172">
        <ele>683</ele>
        <time>2019-10-03T09:39:07Z</time>
      </trkpt>
      <trkpt lat="43.68382" lon="6.81304">
        <ele>689</ele>
        <time>2019-10-03T09:39:33Z</time>
      </trkpt>
      <trkpt lat="43.68309" lon="6.8134">
        <ele>693</ele>
        <time>2019-10-03T09:39:51Z</time>
      </trkpt>
      <trkpt lat="43.68186" lon="6.81322">
        <ele>697</ele>
        <time>2019-10-03T09:40:20Z</time>
      </trkpt>
      <trkpt lat="43.6813" lon="6.81222">
        <ele>693</ele>
        <time>2019-10-03T09:40:41Z</time>
      </trkpt>
      <trkpt lat="43.68094" lon="6.81229">
        <ele>694</ele>
        <time>2019-10-03T09:40:50Z</time>
      </trkpt>
      <trkpt lat="43.68096" lon="6.81295">
        <ele>696</ele>
        <time>2019-10-03T09:41:01Z</time>
      </trkpt>
      <trkpt lat="43.67989" lon="6.8158">
        <ele>722</ele>
        <time>2019-10-03T09:41:55Z</time>
      </trkpt>
      <trkpt lat="43.67966" lon="6.81837">
        <ele>738</ele>
        <time>2019-10-03T09:42:39Z</time>
      </trkpt>
      <trkpt lat="43.67977" lon="6.81891">
        <ele>743</ele>
        <time>2019-10-03T09:42:49Z</time>
      </trkpt>
      <trkpt lat="43.67916" lon="6.81967">
        <ele>750</ele>
        <time>2019-10-03T09:43:08Z</time>
      </trkpt>
      <trkpt lat="43.67874" lon="6.82053">
        <ele>753</ele>
        <time>2019-10-03T09:43:25Z</time>
      </trkpt>
      <trkpt lat="43.67893" lon="6.8218">
        <ele>761</ele>
        <time>2019-10-03T09:43:47Z</time>
      </trkpt>
      <trkpt lat="43.67849" lon="6.82399">
        <ele>759</ele>
        <time>2019-10-03T09:44:26Z</time>
      </trkpt>
      <trkpt lat="43.67937" lon="6.82457">
        <ele>759</ele>
        <time>2019-10-03T09:44:48Z</time>
      </trkpt>
      <trkpt lat="43.67967" lon="6.82537">
        <ele>757</ele>
        <time>2019-10-03T09:45:03Z</time>
      </trkpt>
      <trkpt lat="43.67717" lon="6.82704">
        <ele>727</ele>
        <time>2019-10-03T09:46:08Z</time>
      </trkpt>
      <trkpt lat="43.67648" lon="6.82783">
        <ele>730</ele>
        <time>2019-10-03T09:46:29Z</time>
      </trkpt>
      <trkpt lat="43.67648" lon="6.82863">
        <ele>730</ele>
        <time>2019-10-03T09:46:43Z</time>
      </trkpt>
      <trkpt lat="43.6762" lon="6.82914">
        <ele>729</ele>
        <time>2019-10-03T09:46:54Z</time>
      </trkpt>
      <trkpt lat="43.67592" lon="6.82876">
        <ele>728</ele>
        <time>2019-10-03T09:47:03Z</time>
      </trkpt>
      <trkpt lat="43.67556" lon="6.82897">
        <ele>725</ele>
        <time>2019-10-03T09:47:12Z</time>
      </trkpt>
      <trkpt lat="43.67523" lon="6.83071">
        <ele>716</ele>
        <time>2019-10-03T09:47:42Z</time>
      </trkpt>
      <trkpt lat="43.6748" lon="6.83148">
        <ele>711</ele>
        <time>2019-10-03T09:47:59Z</time>
      </trkpt>
      <trkpt lat="43.67287" lon="6.83291">
        <ele>687</ele>
        <time>2019-10-03T09:48:50Z</time>
      </trkpt>
      <trkpt lat="43.67245" lon="6.83244">
        <ele>682</ele>
        <time>2019-10-03T09:49:02Z</time>
      </trkpt>
      <trkpt lat="43.67232" lon="6.83309">
        <ele>679</ele>
        <time>2019-10-03T09:49:14Z</time>
      </trkpt>
      <trkpt lat="43.67148" lon="6.8314">
        <ele>658</ele>
        <time>2019-10-03T09:49:48Z</time>
      </trkpt>
      <trkpt lat="43.67146" lon="6.83079">
        <ele>656</ele>
        <time>2019-10-03T09:49:59Z</time>
      </trkpt>
      <trkpt lat="43.67122" lon="6.83097">
        <ele>650</ele>
        <time>2019-10-03T09:50:05Z</time>
      </trkpt>
      <trkpt lat="43.67097" lon="6.83182">
        <ele>645</ele>
        <time>2019-10-03T09:50:21Z</time>
      </trkpt>
      <trkpt lat="43.67101" lon="6.83219">
        <ele>647</ele>
        <time>2019-10-03T09:50:27Z</time>
      </trkpt>
      <trkpt lat="43.67065" lon="6.83263">
        <ele>640</ele>
        <time>2019-10-03T09:50:38Z</time>
      </trkpt>
      <trkpt lat="43.67047" lon="6.83322">
        <ele>639</ele>
        <time>2019-10-03T09:50:49Z</time>
      </trkpt>
      <trkpt lat="43.66997" lon="6.83345">
        <ele>630</ele>
        <time>2019-10-03T09:51:01Z</time>
      </trkpt>
      <trkpt lat="43.66934" lon="6.83294">
        <ele>617</ele>
        <time>2019-10-03T09:51:18Z</time>
      </trkpt>
      <trkpt lat="43.66883" lon="6.83317">
        <ele>611</ele>
        <time>2019-10-03T09:51:31Z</time>
      </trkpt>
      <trkpt lat="43.6675" lon="6.83419">
        <ele>600</ele>
        <time>2019-10-03T09:52:06Z</time>
      </trkpt>
      <trkpt lat="43.66718" lon="6.83404">
        <ele>595</ele>
        <time>2019-10-03T09:52:14Z</time>
      </trkpt>
      <trkpt lat="43.66733" lon="6.83324">
        <ele>590</ele>
        <time>2019-10-03T09:52:28Z</time>
      </trkpt>
      <trkpt lat="43.66735" lon="6.83248">
        <ele>584</ele>
        <time>2019-10-03T09:52:41Z</time>
      </trkpt>
      <trkpt lat="43.66669" lon="6.83288">
        <ele>581</ele>
        <time>2019-10-03T09:52:58Z</time>
      </trkpt>
      <trkpt lat="43.66627" lon="6.83194">
        <ele>572</ele>
        <time>2019-10-03T09:53:17Z</time>
      </trkpt>
      <trkpt lat="43.66524" lon="6.83225">
        <ele>569</ele>
        <time>2019-10-03T09:53:41Z</time>
      </trkpt>
      <trkpt lat="43.66484" lon="6.83299">
        <ele>570</ele>
        <time>2019-10-03T09:53:57Z</time>
      </trkpt>
      <trkpt lat="43.66424" lon="6.8327">
        <ele>572</ele>
        <time>2019-10-03T09:54:12Z</time>
      </trkpt>
      <trkpt lat="43.66301" lon="6.837">
        <ele>580</ele>
        <time>2019-10-03T09:55:30Z</time>
      </trkpt>
      <trkpt lat="43.66186" lon="6.83638">
        <ele>591</ele>
        <time>2019-10-03T09:55:59Z</time>
      </trkpt>
      <trkpt lat="43.66249" lon="6.82732">
        <ele>649</ele>
        <time>2019-10-03T09:58:32Z</time>
      </trkpt>
      <trkpt lat="43.66202" lon="6.82818">
        <ele>642</ele>
        <time>2019-10-03T09:58:51Z</time>
      </trkpt>
      <trkpt lat="43.6609" lon="6.82984">
        <ele>636</ele>
        <time>2019-10-03T09:59:29Z</time>
      </trkpt>
      <trkpt lat="43.66014" lon="6.83202">
        <ele>619</ele>
        <time>2019-10-03T10:00:10Z</time>
      </trkpt>
      <trkpt lat="43.65886" lon="6.83352">
        <ele>607</ele>
        <time>2019-10-03T10:00:49Z</time>
      </trkpt>
      <trkpt lat="43.65764" lon="6.83258">
        <ele>602</ele>
        <time>2019-10-03T10:01:22Z</time>
      </trkpt>
      <trkpt lat="43.65722" lon="6.83147">
        <ele>595</ele>
        <time>2019-10-03T10:01:43Z</time>
      </trkpt>
      <trkpt lat="43.65623" lon="6.83248">
        <ele>598</ele>
        <time>2019-10-03T10:02:12Z</time>
      </trkpt>
      <trkpt lat="43.65584" lon="6.83318">
        <ele>599</ele>
        <time>2019-10-03T10:02:26Z</time>
      </trkpt>
      <trkpt lat="43.65534" lon="6.83282">
        <ele>593</ele>
        <time>2019-10-03T10:02:40Z</time>
      </trkpt>
      <trkpt lat="43.65584" lon="6.83217">
        <ele>592</ele>
        <time>2019-10-03T10:02:56Z</time>
      </trkpt>
      <trkpt lat="43.65563" lon="6.83174">
        <ele>583</ele>
        <time>2019-10-03T10:03:04Z</time>
      </trkpt>
      <trkpt lat="43.65531" lon="6.83072">
        <ele>560</ele>
        <time>2019-10-03T10:03:23Z</time>
      </trkpt>
      <trkpt lat="43.65362" lon="6.83228">
        <ele>553</ele>
        <time>2019-10-03T10:04:11Z</time>
      </trkpt>
      <trkpt lat="43.65231" lon="6.83314">
        <ele>542</ele>
        <time>2019-10-03T10:04:45Z</time>
      </trkpt>
      <trkpt lat="43.65174" lon="6.83358">
        <ele>540</ele>
        <time>2019-10-03T10:05:00Z</time>
      </trkpt>
      <trkpt lat="43.65122" lon="6.8335">
        <ele>534</ele>
        <time>2019-10-03T10:05:12Z</time>
      </trkpt>
      <trkpt lat="43.65064" lon="6.83318">
        <ele>525</ele>
        <time>2019-10-03T10:05:27Z</time>
      </trkpt>
      <trkpt lat="43.65061" lon="6.83246">
        <ele>519</ele>
        <time>2019-10-03T10:05:39Z</time>
      </trkpt>
      <trkpt lat="43.65048" lon="6.83098">
        <ele>511</ele>
        <time>2019-10-03T10:06:04Z</time>
      </trkpt>
      <trkpt lat="43.65106" lon="6.83029">
        <ele>505</ele>
        <time>2019-10-03T10:06:22Z</time>
      </trkpt>
      <trkpt lat="43.65028" lon="6.82953">
        <ele>500</ele>
        <time>2019-10-03T10:06:44Z</time>
      </trkpt>
      <trkpt lat="43.6503" lon="6.82885">
        <ele>491</ele>
        <time>2019-10-03T10:06:56Z</time>
      </trkpt>
      <trkpt lat="43.64957" lon="6.82784">
        <ele>479</ele>
        <time>2019-10-03T10:07:20Z</time>
      </trkpt>
      <trkpt lat="43.64988" lon="6.82721">
        <ele>473</ele>
        <time>2019-10-03T10:07:33Z</time>
      </trkpt>
      <trkpt lat="43.64985" lon="6.82706">
        <ele>472</ele>
        <time>2019-10-03T10:07:35Z</time>
      </trkpt>
      <trkpt lat="43.64946" lon="6.82714">
        <ele>470</ele>
        <time>2019-10-03T10:07:44Z</time>
      </trkpt>
      <trkpt lat="43.64924" lon="6.82633">
        <ele>461</ele>
        <time>2019-10-03T10:07:59Z</time>
      </trkpt>
      <trkpt lat="43.64898" lon="6.82603">
        <ele>457</ele>
        <time>2019-10-03T10:08:07Z</time>
      </trkpt>
      <trkpt lat="43.64867" lon="6.82457">
        <ele>450</ele>
        <time>2019-10-03T10:08:33Z</time>
      </trkpt>
      <trkpt lat="43.64807" lon="6.82296">
        <ele>450</ele>
        <time>2019-10-03T10:09:03Z</time>
      </trkpt>
      <trkpt lat="43.64757" lon="6.82403">
        <ele>445</ele>
        <time>2019-10-03T10:09:25Z</time>
      </trkpt>
      <trkpt lat="43.64659" lon="6.82466">
        <ele>442</ele>
        <time>2019-10-03T10:09:50Z</time>
      </trkpt>
      <trkpt lat="43.64616" lon="6.825">
        <ele>442</ele>
        <time>2019-10-03T10:10:02Z</time>
      </trkpt>
      <trkpt lat="43.64504" lon="6.82642">
        <ele>437</ele>
        <time>2019-10-03T10:10:37Z</time>
      </trkpt>
      <trkpt lat="43.64396" lon="6.82808">
        <ele>438</ele>
        <time>2019-10-03T10:11:15Z</time>
      </trkpt>
      <trkpt lat="43.64375" lon="6.82748">
        <ele>434</ele>
        <time>2019-10-03T10:11:26Z</time>
      </trkpt>
      <trkpt lat="43.64271" lon="6.8283">
        <ele>434</ele>
        <time>2019-10-03T10:11:54Z</time>
      </trkpt>
      <trkpt lat="43.6417" lon="6.82903">
        <ele>429</ele>
        <time>2019-10-03T10:12:21Z</time>
      </trkpt>
      <trkpt lat="43.64078" lon="6.82893">
        <ele>428</ele>
        <time>2019-10-03T10:12:42Z</time>
      </trkpt>
      <trkpt lat="43.6401" lon="6.82826">
        <ele>422</ele>
        <time>2019-10-03T10:13:02Z</time>
      </trkpt>
      <trkpt lat="43.6394" lon="6.82749">
        <ele>421</ele>
        <time>2019-10-03T10:13:23Z</time>
      </trkpt>
      <trkpt lat="43.63893" lon="6.82732">
        <ele>422</ele>
        <time>2019-10-03T10:13:34Z</time>
      </trkpt>
      <trkpt lat="43.63826" lon="6.82727">
        <ele>423</ele>
        <time>2019-10-03T10:13:50Z</time>
      </trkpt>
      <trkpt lat="43.6373" lon="6.82682">
        <ele>411</ele>
        <time>2019-10-03T10:14:13Z</time>
      </trkpt>
      <trkpt lat="43.63612" lon="6.82714">
        <ele>402</ele>
        <time>2019-10-03T10:14:41Z</time>
      </trkpt>
      <trkpt lat="43.63486" lon="6.8282">
        <ele>388</ele>
        <time>2019-10-03T10:15:16Z</time>
      </trkpt>
      <trkpt lat="43.63463" lon="6.82759">
        <ele>381</ele>
        <time>2019-10-03T10:15:27Z</time>
      </trkpt>
      <trkpt lat="43.63401" lon="6.82764">
        <ele>377</ele>
        <time>2019-10-03T10:15:42Z</time>
      </trkpt>
      <trkpt lat="43.63286" lon="6.82941">
        <ele>380</ele>
        <time>2019-10-03T10:16:22Z</time>
      </trkpt>
      <trkpt lat="43.63275" lon="6.83006">
        <ele>382</ele>
        <time>2019-10-03T10:16:33Z</time>
      </trkpt>
      <trkpt lat="43.63256" lon="6.83002">
        <ele>382</ele>
        <time>2019-10-03T10:16:38Z</time>
      </trkpt>
      <trkpt lat="43.63108" lon="6.83112">
        <ele>375</ele>
        <time>2019-10-03T10:17:17Z</time>
      </trkpt>
      <trkpt lat="43.63046" lon="6.83058">
        <ele>368</ele>
        <time>2019-10-03T10:17:34Z</time>
      </trkpt>
      <trkpt lat="43.62946" lon="6.82904">
        <ele>346</ele>
        <time>2019-10-03T10:18:09Z</time>
      </trkpt>
      <trkpt lat="43.62956" lon="6.82758">
        <ele>349</ele>
        <time>2019-10-03T10:18:34Z</time>
      </trkpt>
      <trkpt lat="43.62931" lon="6.82706">
        <ele>335</ele>
        <time>2019-10-03T10:18:45Z</time>
      </trkpt>
      <trkpt lat="43.62913" lon="6.82733">
        <ele>331</ele>
        <time>2019-10-03T10:18:51Z</time>
      </trkpt>
      <trkpt lat="43.62888" lon="6.82729">
        <ele>318</ele>
        <time>2019-10-03T10:18:57Z</time>
      </trkpt>
      <trkpt lat="43.62882" lon="6.82762">
        <ele>318</ele>
        <time>2019-10-03T10:19:02Z</time>
      </trkpt>
      <trkpt lat="43.62854" lon="6.82761">
        <ele>304</ele>
        <time>2019-10-03T10:19:09Z</time>
      </trkpt>
      <trkpt lat="43.6284" lon="6.8279">
        <ele>297</ele>
        <time>2019-10-03T10:19:15Z</time>
      </trkpt>
      <trkpt lat="43.62841" lon="6.82853">
        <ele>298</ele>
        <time>2019-10-03T10:19:26Z</time>
      </trkpt>
      <trkpt lat="43.62818" lon="6.82883">
        <ele>286</ele>
        <time>2019-10-03T10:19:33Z</time>
      </trkpt>
      <trkpt lat="43.62825" lon="6.83065">
        <ele>275</ele>
        <time>2019-10-03T10:20:04Z</time>
      </trkpt>
      <trkpt lat="43.62789" lon="6.83068">
        <ele>260</ele>
        <time>2019-10-03T10:20:12Z</time>
      </trkpt>
      <trkpt lat="43.62775" lon="6.83159">
        <ele>245</ele>
        <time>2019-10-03T10:20:28Z</time>
      </trkpt>
      <trkpt lat="43.62781" lon="6.8334">
        <ele>233</ele>
        <time>2019-10-03T10:20:59Z</time>
      </trkpt>
      <trkpt lat="43.62814" lon="6.83407">
        <ele>231</ele>
        <time>2019-10-03T10:21:12Z</time>
      </trkpt>
      <trkpt lat="43.63049" lon="6.83642">
        <ele>236</ele>
        <time>2019-10-03T10:22:20Z</time>
      </trkpt>
      <trkpt lat="43.6314" lon="6.83765">
        <ele>233</ele>
        <time>2019-10-03T10:22:50Z</time>
      </trkpt>
      <trkpt lat="43.63195" lon="6.83826">
        <ele>235</ele>
        <time>2019-10-03T10:23:06Z</time>
      </trkpt>
      <trkpt lat="43.63284" lon="6.83985">
        <ele>239</ele>
        <time>2019-10-03T10:23:40Z</time>
      </trkpt>
      <trkpt lat="43.63258" lon="6.84071">
        <ele>231</ele>
        <time>2019-10-03T10:23:56Z</time>
      </trkpt>
      <trkpt lat="43.6331" lon="6.84165">
        <ele>241</ele>
        <time>2019-10-03T10:24:16Z</time>
      </trkpt>
      <trkpt lat="43.63179" lon="6.84191">
        <ele>234</ele>
        <time>2019-10-03T10:24:47Z</time>
      </trkpt>
      <trkpt lat="43.63122" lon="6.84237">
        <ele>240</ele>
        <time>2019-10-03T10:25:02Z</time>
      </trkpt>
      <trkpt lat="43.63088" lon="6.84191">
        <ele>231</ele>
        <time>2019-10-03T10:25:13Z</time>
      </trkpt>
      <trkpt lat="43.63077" lon="6.84295">
        <ele>243</ele>
        <time>2019-10-03T10:25:31Z</time>
      </trkpt>
      <trkpt lat="43.63041" lon="6.84382">
        <ele>243</ele>
        <time>2019-10-03T10:25:48Z</time>
      </trkpt>
      <trkpt lat="43.63175" lon="6.84518">
        <ele>235</ele>
        <time>2019-10-03T10:26:27Z</time>
      </trkpt>
      <trkpt lat="43.63246" lon="6.84626">
        <ele>236</ele>
        <time>2019-10-03T10:26:52Z</time>
      </trkpt>
      <trkpt lat="43.63186" lon="6.84738">
        <ele>232</ele>
        <time>2019-10-03T10:27:15Z</time>
      </trkpt>
      <trkpt lat="43.63303" lon="6.84987">
        <ele>236</ele>
        <time>2019-10-03T10:28:05Z</time>
      </trkpt>
      <trkpt lat="43.63233" lon="6.84987">
        <ele>232</ele>
        <time>2019-10-03T10:28:22Z</time>
      </trkpt>
      <trkpt lat="43.63115" lon="6.84854">
        <ele>224</ele>
        <time>2019-10-03T10:28:57Z</time>
      </trkpt>
      <trkpt lat="43.63021" lon="6.84835">
        <ele>215</ele>
        <time>2019-10-03T10:29:19Z</time>
      </trkpt>
      <trkpt lat="43.62888" lon="6.84958">
        <ele>218</ele>
        <time>2019-10-03T10:29:57Z</time>
      </trkpt>
      <trkpt lat="43.62815" lon="6.85164">
        <ele>232</ele>
        <time>2019-10-03T10:30:36Z</time>
      </trkpt>
      <trkpt lat="43.62802" lon="6.85315">
        <ele>245</ele>
        <time>2019-10-03T10:31:01Z</time>
      </trkpt>
      <trkpt lat="43.62636" lon="6.85502">
        <ele>240</ele>
        <time>2019-10-03T10:31:51Z</time>
      </trkpt>
      <trkpt lat="43.62581" lon="6.85397">
        <ele>220</ele>
        <time>2019-10-03T10:32:13Z</time>
      </trkpt>
      <trkpt lat="43.62555" lon="6.85325">
        <ele>205</ele>
        <time>2019-10-03T10:32:27Z</time>
      </trkpt>
      <trkpt lat="43.62521" lon="6.85289">
        <ele>192</ele>
        <time>2019-10-03T10:32:37Z</time>
      </trkpt>
      <trkpt lat="43.62471" lon="6.85354">
        <ele>193</ele>
        <time>2019-10-03T10:32:53Z</time>
      </trkpt>
      <trkpt lat="43.62453" lon="6.85455">
        <ele>196</ele>
        <time>2019-10-03T10:33:10Z</time>
      </trkpt>
      <trkpt lat="43.62471" lon="6.85488">
        <ele>200</ele>
        <time>2019-10-03T10:33:17Z</time>
      </trkpt>
      <trkpt lat="43.62398" lon="6.85527">
        <ele>198</ele>
        <time>2019-10-03T10:33:36Z</time>
      </trkpt>
      <trkpt lat="43.62375" lon="6.85509">
        <ele>200</ele>
        <time>2019-10-03T10:33:42Z</time>
      </trkpt>
      <trkpt lat="43.62338" lon="6.85361">
        <ele>174</ele>
        <time>2019-10-03T10:34:08Z</time>
      </trkpt>
      <trkpt lat="43.62215" lon="6.85293">
        <ele>173</ele>
        <time>2019-10-03T10:34:39Z</time>
      </trkpt>
      <trkpt lat="43.62158" lon="6.85156">
        <ele>157</ele>
        <time>2019-10-03T10:35:06Z</time>
      </trkpt>
      <trkpt lat="43.62111" lon="6.85235">
        <ele>162</ele>
        <time>2019-10-03T10:35:23Z</time>
      </trkpt>
      <trkpt lat="43.62027" lon="6.85213">
        <ele>167</ele>
        <time>2019-10-03T10:35:43Z</time>
      </trkpt>
      <trkpt lat="43.61967" lon="6.85076">
        <ele>150</ele>
        <time>2019-10-03T10:36:10Z</time>
      </trkpt>
      <trkpt lat="43.61894" lon="6.85069">
        <ele>152</ele>
        <time>2019-10-03T10:36:27Z</time>
      </trkpt>
      <trkpt lat="43.61868" lon="6.85008">
        <ele>139</ele>
        <time>2019-10-03T10:36:39Z</time>
      </trkpt>
      <trkpt lat="43.61722" lon="6.85019">
        <ele>138</ele>
        <time>2019-10-03T10:37:13Z</time>
      </trkpt>
      <trkpt lat="43.61604" lon="6.84936">
        <ele>124</ele>
        <time>2019-10-03T10:37:44Z</time>
      </trkpt>
      <trkpt lat="43.61505" lon="6.84925">
        <ele>128</ele>
        <time>2019-10-03T10:38:08Z</time>
      </trkpt>
      <trkpt lat="43.61486" lon="6.84915">
        <ele>133</ele>
        <time>2019-10-03T10:38:12Z</time>
      </trkpt>
      <trkpt lat="43.61462" lon="6.84792">
        <ele>130</ele>
        <time>2019-10-03T10:38:34Z</time>
      </trkpt>
      <trkpt lat="43.61475" lon="6.84698">
        <ele>109</ele>
        <time>2019-10-03T10:38:50Z</time>
      </trkpt>
      <trkpt lat="43.61462" lon="6.84651">
        <ele>104</ele>
        <time>2019-10-03T10:38:59Z</time>
      </trkpt>
      <trkpt lat="43.61381" lon="6.84586">
        <ele>99</ele>
        <time>2019-10-03T10:39:20Z</time>
      </trkpt>
      <trkpt lat="43.61355" lon="6.84503">
        <ele>90</ele>
        <time>2019-10-03T10:39:36Z</time>
      </trkpt>
      <trkpt lat="43.61308" lon="6.84464">
        <ele>83</ele>
        <time>2019-10-03T10:39:49Z</time>
      </trkpt>
      <trkpt lat="43.61292" lon="6.84395">
        <ele>85</ele>
        <time>2019-10-03T10:40:01Z</time>
      </trkpt>
      <trkpt lat="43.61193" lon="6.84428">
        <ele>85</ele>
        <time>2019-10-03T10:40:25Z</time>
      </trkpt>
      <trkpt lat="43.61065" lon="6.84515">
        <ele>72</ele>
        <time>2019-10-03T10:40:58Z</time>
      </trkpt>
      <trkpt lat="43.60977" lon="6.84479">
        <ele>79</ele>
        <time>2019-10-03T10:41:19Z</time>
      </trkpt>
      <trkpt lat="43.6091" lon="6.84512">
        <ele>74</ele>
        <time>2019-10-03T10:41:36Z</time>
      </trkpt>
      <trkpt lat="43.60729" lon="6.84559">
        <ele>77</ele>
        <time>2019-10-03T10:42:19Z</time>
      </trkpt>
      <trkpt lat="43.60572" lon="6.84418">
        <ele>85</ele>
        <time>2019-10-03T10:43:03Z</time>
      </trkpt>
      <trkpt lat="43.60518" lon="6.84461">
        <ele>94</ele>
        <time>2019-10-03T10:43:17Z</time>
      </trkpt>
      <trkpt lat="43.60457" lon="6.8432">
        <ele>88</ele>
        <time>2019-10-03T10:43:45Z</time>
      </trkpt>
      <trkpt lat="43.60457" lon="6.84252">
        <ele>82</ele>
        <time>2019-10-03T10:43:56Z</time>
      </trkpt>
      <trkpt lat="43.60298" lon="6.84223">
        <ele>95</ele>
        <time>2019-10-03T10:44:34Z</time>
      </trkpt>
      <trkpt lat="43.60209" lon="6.84249">
        <ele>99</ele>
        <time>2019-10-03T10:44:55Z</time>
      </trkpt>
      <trkpt lat="43.60127" lon="6.84232">
        <ele>87</ele>
        <time>2019-10-03T10:45:15Z</time>
      </trkpt>
      <trkpt lat="43.60135" lon="6.84328">
        <ele>97</ele>
        <time>2019-10-03T10:45:31Z</time>
      </trkpt>
      <trkpt lat="43.60098" lon="6.84385">
        <ele>95</ele>
        <time>2019-10-03T10:45:44Z</time>
      </trkpt>
      <trkpt lat="43.60109" lon="6.84479">
        <ele>94</ele>
        <time>2019-10-03T10:46:00Z</time>
      </trkpt>
      <trkpt lat="43.60063" lon="6.84492">
        <ele>90</ele>
        <time>2019-10-03T10:46:11Z</time>
      </trkpt>
      <trkpt lat="43.59995" lon="6.84447">
        <ele>102</ele>
        <time>2019-10-03T10:46:29Z</time>
      </trkpt>
      <trkpt lat="43.5994" lon="6.8436">
        <ele>113</ele>
        <time>2019-10-03T10:46:48Z</time>
      </trkpt>
      <trkpt lat="43.59913" lon="6.84268">
        <ele>127</ele>
        <time>2019-10-03T10:47:05Z</time>
      </trkpt>
      <trkpt lat="43.59861" lon="6.84169">
        <ele>145</ele>
        <time>2019-10-03T10:47:26Z</time>
      </trkpt>
      <trkpt lat="43.59844" lon="6.84114">
        <ele>151</ele>
        <time>2019-10-03T10:47:36Z</time>
      </trkpt>
      <trkpt lat="43.59793" lon="6.8402">
        <ele>168</ele>
        <time>2019-10-03T10:47:55Z</time>
      </trkpt>
      <trkpt lat="43.59766" lon="6.83952">
        <ele>168</ele>
        <time>2019-10-03T10:48:09Z</time>
      </trkpt>
      <trkpt lat="43.59717" lon="6.83955">
        <ele>176</ele>
        <time>2019-10-03T10:48:20Z</time>
      </trkpt>
      <trkpt lat="43.59658" lon="6.84011">
        <ele>197</ele>
        <time>2019-10-03T10:48:37Z</time>
      </trkpt>
      <trkpt lat="43.59619" lon="6.84052">
        <ele>207</ele>
        <time>2019-10-03T10:48:48Z</time>
      </trkpt>
      <trkpt lat="43.5957" lon="6.8407">
        <ele>209</ele>
        <time>2019-10-03T10:49:00Z</time>
      </trkpt>
      <trkpt lat="43.59519" lon="6.84103">
        <ele>219</ele>
        <time>2019-10-03T10:49:13Z</time>
      </trkpt>
      <trkpt lat="43.59411" lon="6.84152">
        <ele>230</ele>
        <time>2019-10-03T10:49:40Z</time>
      </trkpt>
      <trkpt lat="43.59339" lon="6.84181">
        <ele>233</ele>
        <time>2019-10-03T10:49:57Z</time>
      </trkpt>
      <trkpt lat="43.59289" lon="6.84173">
        <ele>239</ele>
        <time>2019-10-03T10:50:09Z</time>
      </trkpt>
      <trkpt lat="43.59241" lon="6.84126">
        <ele>236</ele>
        <time>2019-10-03T10:50:23Z</time>
      </trkpt>
      <trkpt lat="43.59155" lon="6.84073">
        <ele>242</ele>
        <time>2019-10-03T10:50:45Z</time>
      </trkpt>
      <trkpt lat="43.59101" lon="6.84055">
        <ele>258</ele>
        <time>2019-10-03T10:50:58Z</time>
      </trkpt>
      <trkpt lat="43.59108" lon="6.84009">
        <ele>246</ele>
        <time>2019-10-03T10:51:06Z</time>
      </trkpt>
      <trkpt lat="43.59092" lon="6.83945">
        <ele>248</ele>
        <time>2019-10-03T10:51:17Z</time>
      </trkpt>
      <trkpt lat="43.59081" lon="6.83847">
        <ele>250</ele>
        <time>2019-10-03T10:51:34Z</time>
      </trkpt>
      <trkpt lat="43.59093" lon="6.83794">
        <ele>244</ele>
        <time>2019-10-03T10:51:43Z</time>
      </trkpt>
      <trkpt lat="43.59076" lon="6.83747">
        <ele>259</ele>
        <time>2019-10-03T10:51:52Z</time>
      </trkpt>
      <trkpt lat="43.59095" lon="6.83692">
        <ele>254</ele>
        <time>2019-10-03T10:52:03Z</time>
      </trkpt>
      <trkpt lat="43.59109" lon="6.83627">
        <ele>256</ele>
        <time>2019-10-03T10:52:14Z</time>
      </trkpt>
      <trkpt lat="43.59161" lon="6.8354">
        <ele>241</ele>
        <time>2019-10-03T10:52:33Z</time>
      </trkpt>
      <trkpt lat="43.59193" lon="6.83436">
        <ele>239</ele>
        <time>2019-10-03T10:52:52Z</time>
      </trkpt>
      <trkpt lat="43.59236" lon="6.83367">
        <ele>223</ele>
        <time>2019-10-03T10:53:08Z</time>
      </trkpt>
      <trkpt lat="43.59232" lon="6.83308">
        <ele>223</ele>
        <time>2019-10-03T10:53:18Z</time>
      </trkpt>
      <trkpt lat="43.59121" lon="6.83219">
        <ele>227</ele>
        <time>2019-10-03T10:53:48Z</time>
      </trkpt>
      <trkpt lat="43.5906" lon="6.83184">
        <ele>229</ele>
        <time>2019-10-03T10:54:03Z</time>
      </trkpt>
      <trkpt lat="43.59004" lon="6.83138">
        <ele>226</ele>
        <time>2019-10-03T10:54:18Z</time>
      </trkpt>
      <trkpt lat="43.58985" lon="6.83158">
        <ele>235</ele>
        <time>2019-10-03T10:54:24Z</time>
      </trkpt>
      <trkpt lat="43.58978" lon="6.83111">
        <ele>224</ele>
        <time>2019-10-03T10:54:32Z</time>
      </trkpt>
      <trkpt lat="43.58906" lon="6.83119">
        <ele>244</ele>
        <time>2019-10-03T10:54:49Z</time>
      </trkpt>
      <trkpt lat="43.58882" lon="6.82968">
        <ele>235</ele>
        <time>2019-10-03T10:55:15Z</time>
      </trkpt>
      <trkpt lat="43.58915" lon="6.82914">
        <ele>223</ele>
        <time>2019-10-03T10:55:27Z</time>
      </trkpt>
      <trkpt lat="43.58883" lon="6.82883">
        <ele>218</ele>
        <time>2019-10-03T10:55:36Z</time>
      </trkpt>
      <trkpt lat="43.58845" lon="6.82871">
        <ele>218</ele>
        <time>2019-10-03T10:55:45Z</time>
      </trkpt>
      <trkpt lat="43.58818" lon="6.8284">
        <ele>216</ele>
        <time>2019-10-03T10:55:53Z</time>
      </trkpt>
      <trkpt lat="43.58808" lon="6.82795">
        <ele>207</ele>
        <time>2019-10-03T10:56:01Z</time>
      </trkpt>
      <trkpt lat="43.58785" lon="6.82762">
        <ele>203</ele>
        <time>2019-10-03T10:56:09Z</time>
      </trkpt>
      <trkpt lat="43.5876" lon="6.82672">
        <ele>180</ele>
        <time>2019-10-03T10:56:25Z</time>
      </trkpt>
      <trkpt lat="43.5874" lon="6.82617">
        <ele>170</ele>
        <time>2019-10-03T10:56:36Z</time>
      </trkpt>
      <trkpt lat="43.58767" lon="6.82613">
        <ele>167</ele>
        <time>2019-10-03T10:56:42Z</time>
      </trkpt>
      <trkpt lat="43.58759" lon="6.8258">
        <ele>162</ele>
        <time>2019-10-03T10:56:48Z</time>
      </trkpt>
      <trkpt lat="43.58739" lon="6.82554">
        <ele>163</ele>
        <time>2019-10-03T10:56:54Z</time>
      </trkpt>
      <trkpt lat="43.58815" lon="6.82443">
        <ele>169</ele>
        <time>2019-10-03T10:57:20Z</time>
      </trkpt>
      <trkpt lat="43.58829" lon="6.82361">
        <ele>176</ele>
        <time>2019-10-03T10:57:34Z</time>
      </trkpt>
      <trkpt lat="43.58801" lon="6.82213">
        <ele>187</ele>
        <time>2019-10-03T10:58:00Z</time>
      </trkpt>
      <trkpt lat="43.58823" lon="6.82113">
        <ele>184</ele>
        <time>2019-10-03T10:58:18Z</time>
      </trkpt>
      <trkpt lat="43.5879" lon="6.82055">
        <ele>184</ele>
        <time>2019-10-03T10:58:30Z</time>
      </trkpt>
      <trkpt lat="43.5871" lon="6.82066">
        <ele>191</ele>
        <time>2019-10-03T10:58:49Z</time>
      </trkpt>
      <trkpt lat="43.58629" lon="6.82113">
        <ele>196</ele>
        <time>2019-10-03T10:59:10Z</time>
      </trkpt>
      <trkpt lat="43.58617" lon="6.82052">
        <ele>200</ele>
        <time>2019-10-03T10:59:20Z</time>
      </trkpt>
      <trkpt lat="43.58581" lon="6.82093">
        <ele>200</ele>
        <time>2019-10-03T10:59:31Z</time>
      </trkpt>
      <trkpt lat="43.58532" lon="6.82108">
        <ele>212</ele>
        <time>2019-10-03T10:59:43Z</time>
      </trkpt>
      <trkpt lat="43.58537" lon="6.82185">
        <ele>207</ele>
        <time>2019-10-03T10:59:56Z</time>
      </trkpt>
      <trkpt lat="43.58479" lon="6.82281">
        <ele>214</ele>
        <time>2019-10-03T11:00:17Z</time>
      </trkpt>
      <trkpt lat="43.58478" lon="6.82357">
        <ele>208</ele>
        <time>2019-10-03T11:00:30Z</time>
      </trkpt>
      <trkpt lat="43.58449" lon="6.82385">
        <ele>208</ele>
        <time>2019-10-03T11:00:38Z</time>
      </trkpt>
      <trkpt lat="43.58406" lon="6.82341">
        <ele>219</ele>
        <time>2019-10-03T11:00:51Z</time>
      </trkpt>
      <trkpt lat="43.5835" lon="6.82329">
        <ele>222</ele>
        <time>2019-10-03T11:01:04Z</time>
      </trkpt>
      <trkpt lat="43.58172" lon="6.82415">
        <ele>203</ele>
        <time>2019-10-03T11:01:48Z</time>
      </trkpt>
      <trkpt lat="43.58145" lon="6.82329">
        <ele>207</ele>
        <time>2019-10-03T11:02:04Z</time>
      </trkpt>
      <trkpt lat="43.5816" lon="6.82248">
        <ele>214</ele>
        <time>2019-10-03T11:02:18Z</time>
      </trkpt>
      <trkpt lat="43.57908" lon="6.82158">
        <ele>213</ele>
        <time>2019-10-03T11:03:19Z</time>
      </trkpt>
      <trkpt lat="43.57886" lon="6.82269">
        <ele>205</ele>
        <time>2019-10-03T11:03:38Z</time>
      </trkpt>
      <trkpt lat="43.57803" lon="6.82295">
        <ele>209</ele>
        <time>2019-10-03T11:03:58Z</time>
      </trkpt>
      <trkpt lat="43.57709" lon="6.82438">
        <ele>211</ele>
        <time>2019-10-03T11:04:31Z</time>
      </trkpt>
      <trkpt lat="43.57692" lon="6.82503">
        <ele>209</ele>
        <time>2019-10-03T11:04:43Z</time>
      </trkpt>
      <trkpt lat="43.57645" lon="6.82594">
        <ele>210</ele>
        <time>2019-10-03T11:05:02Z</time>
      </trkpt>
      <trkpt lat="43.57531" lon="6.82795">
        <ele>217</ele>
        <time>2019-10-03T11:05:45Z</time>
      </trkpt>
      <trkpt lat="43.57326" lon="6.83002">
        <ele>215</ele>
        <time>2019-10-03T11:06:44Z</time>
      </trkpt>
      <trkpt lat="43.57175" lon="6.82759">
        <ele>233</ele>
        <time>2019-10-03T11:07:38Z</time>
      </trkpt>
      <trkpt lat="43.56942" lon="6.8292">
        <ele>242</ele>
        <time>2019-10-03T11:08:39Z</time>
      </trkpt>
      <trkpt lat="43.56832" lon="6.83071">
        <ele>254</ele>
        <time>2019-10-03T11:09:15Z</time>
      </trkpt>
      <trkpt lat="43.56706" lon="6.83199">
        <ele>253</ele>
        <time>2019-10-03T11:09:52Z</time>
      </trkpt>
      <trkpt lat="43.56638" lon="6.8329">
        <ele>249</ele>
        <time>2019-10-03T11:10:14Z</time>
      </trkpt>
      <trkpt lat="43.56552" lon="6.83354">
        <ele>251</ele>
        <time>2019-10-03T11:10:37Z</time>
      </trkpt>
      <trkpt lat="43.56478" lon="6.83427">
        <ele>257</ele>
        <time>2019-10-03T11:10:58Z</time>
      </trkpt>
      <trkpt lat="43.56454" lon="6.83539">
        <ele>265</ele>
        <time>2019-10-03T11:11:18Z</time>
      </trkpt>
      <trkpt lat="43.56379" lon="6.83782">
        <ele>271</ele>
        <time>2019-10-03T11:12:03Z</time>
      </trkpt>
      <trkpt lat="43.56328" lon="6.83921">
        <ele>267</ele>
        <time>2019-10-03T11:12:29Z</time>
      </trkpt>
      <trkpt lat="43.56324" lon="6.84073">
        <ele>274</ele>
        <time>2019-10-03T11:12:55Z</time>
      </trkpt>
      <trkpt lat="43.56273" lon="6.84179">
        <ele>282</ele>
        <time>2019-10-03T11:13:16Z</time>
      </trkpt>
      <trkpt lat="43.56267" lon="6.84261">
        <ele>290</ele>
        <time>2019-10-03T11:13:30Z</time>
      </trkpt>
      <trkpt lat="43.56194" lon="6.84273">
        <ele>298</ele>
        <time>2019-10-03T11:13:47Z</time>
      </trkpt>
      <trkpt lat="43.56172" lon="6.84361">
        <ele>316</ele>
        <time>2019-10-03T11:14:03Z</time>
      </trkpt>
      <trkpt lat="43.56117" lon="6.84361">
        <ele>317</ele>
        <time>2019-10-03T11:14:16Z</time>
      </trkpt>
      <trkpt lat="43.56205" lon="6.8444">
        <ele>323</ele>
        <time>2019-10-03T11:14:40Z</time>
      </trkpt>
      <trkpt lat="43.5608" lon="6.84428">
        <ele>333</ele>
        <time>2019-10-03T11:15:10Z</time>
      </trkpt>
      <trkpt lat="43.5615" lon="6.84489">
        <ele>340</ele>
        <time>2019-10-03T11:15:29Z</time>
      </trkpt>
      <trkpt lat="43.56135" lon="6.84546">
        <ele>346</ele>
        <time>2019-10-03T11:15:39Z</time>
      </trkpt>
      <trkpt lat="43.56165" lon="6.84601">
        <ele>341</ele>
        <time>2019-10-03T11:15:51Z</time>
      </trkpt>
      <trkpt lat="43.56089" lon="6.84737">
        <ele>359</ele>
        <time>2019-10-03T11:16:20Z</time>
      </trkpt>
      <trkpt lat="43.5604" lon="6.84783">
        <ele>376</ele>
        <time>2019-10-03T11:16:34Z</time>
      </trkpt>
      <trkpt lat="43.56073" lon="6.84871">
        <ele>381</ele>
        <time>2019-10-03T11:16:51Z</time>
      </trkpt>
      <trkpt lat="43.56143" lon="6.84865">
        <ele>363</ele>
        <time>2019-10-03T11:17:07Z</time>
      </trkpt>
      <trkpt lat="43.56172" lon="6.8498">
        <ele>379</ele>
        <time>2019-10-03T11:17:28Z</time>
      </trkpt>
      <trkpt lat="43.56148" lon="6.85117">
        <ele>394</ele>
        <time>2019-10-03T11:17:51Z</time>
      </trkpt>
      <trkpt lat="43.56273" lon="6.85105">
        <ele>391</ele>
        <time>2019-10-03T11:18:21Z</time>
      </trkpt>
      <trkpt lat="43.56361" lon="6.8519">
        <ele>401</ele>
        <time>2019-10-03T11:18:46Z</time>
      </trkpt>
      <trkpt lat="43.56251" lon="6.85208">
        <ele>409</ele>
        <time>2019-10-03T11:19:12Z</time>
      </trkpt>
      <trkpt lat="43.56146" lon="6.85272">
        <ele>409</ele>
        <time>2019-10-03T11:19:38Z</time>
      </trkpt>
      <trkpt lat="43.56037" lon="6.85197">
        <ele>404</ele>
        <time>2019-10-03T11:20:07Z</time>
      </trkpt>
      <trkpt lat="43.55957" lon="6.85061">
        <ele>411</ele>
        <time>2019-10-03T11:20:37Z</time>
      </trkpt>
      <trkpt lat="43.55878" lon="6.84937">
        <ele>403</ele>
        <time>2019-10-03T11:21:04Z</time>
      </trkpt>
      <trkpt lat="43.55805" lon="6.84976">
        <ele>395</ele>
        <time>2019-10-03T11:21:23Z</time>
      </trkpt>
      <trkpt lat="43.55725" lon="6.85219">
        <ele>380</ele>
        <time>2019-10-03T11:22:08Z</time>
      </trkpt>
      <trkpt lat="43.55629" lon="6.85288">
        <ele>371</ele>
        <time>2019-10-03T11:22:33Z</time>
      </trkpt>
      <trkpt lat="43.55608" lon="6.85329">
        <ele>374</ele>
        <time>2019-10-03T11:22:42Z</time>
      </trkpt>
      <trkpt lat="43.55531" lon="6.8533">
        <ele>376</ele>
        <time>2019-10-03T11:23:00Z</time>
      </trkpt>
      <trkpt lat="43.55447" lon="6.85404">
        <ele>384</ele>
        <time>2019-10-03T11:23:23Z</time>
      </trkpt>
      <trkpt lat="43.55386" lon="6.85405">
        <ele>385</ele>
        <time>2019-10-03T11:23:37Z</time>
      </trkpt>
      <trkpt lat="43.55355" lon="6.85433">
        <ele>391</ele>
        <time>2019-10-03T11:23:46Z</time>
      </trkpt>
      <trkpt lat="43.55279" lon="6.85404">
        <ele>382</ele>
        <time>2019-10-03T11:24:04Z</time>
      </trkpt>
      <trkpt lat="43.55164" lon="6.85423">
        <ele>380</ele>
        <time>2019-10-03T11:24:31Z</time>
      </trkpt>
      <trkpt lat="43.55182" lon="6.85533">
        <ele>389</ele>
        <time>2019-10-03T11:24:50Z</time>
      </trkpt>
      <trkpt lat="43.55165" lon="6.8566">
        <ele>392</ele>
        <time>2019-10-03T11:25:12Z</time>
      </trkpt>
      <trkpt lat="43.55111" lon="6.85809">
        <ele>380</ele>
        <time>2019-10-03T11:25:40Z</time>
      </trkpt>
      <trkpt lat="43.5512" lon="6.85929">
        <ele>372</ele>
        <time>2019-10-03T11:26:01Z</time>
      </trkpt>
      <trkpt lat="43.55147" lon="6.86012">
        <ele>373</ele>
        <time>2019-10-03T11:26:16Z</time>
      </trkpt>
      <trkpt lat="43.55098" lon="6.85998">
        <ele>368</ele>
        <time>2019-10-03T11:26:28Z</time>
      </trkpt>
      <trkpt lat="43.55037" lon="6.85929">
        <ele>370</ele>
        <time>2019-10-03T11:26:46Z</time>
      </trkpt>
      <trkpt lat="43.54955" lon="6.85914">
        <ele>360</ele>
        <time>2019-10-03T11:27:06Z</time>
      </trkpt>
      <trkpt lat="43.54927" lon="6.85883">
        <ele>358</ele>
        <time>2019-10-03T11:27:14Z</time>
      </trkpt>
      <trkpt lat="43.54891" lon="6.85751">
        <ele>349</ele>
        <time>2019-10-03T11:27:38Z</time>
      </trkpt>
      <trkpt lat="43.54975" lon="6.85663">
        <ele>346</ele>
        <time>2019-10-03T11:28:03Z</time>
      </trkpt>
      <trkpt lat="43.54854" lon="6.85704">
        <ele>324</ele>
        <time>2019-10-03T11:28:32Z</time>
      </trkpt>
      <trkpt lat="43.54759" lon="6.85751">
        <ele>315</ele>
        <time>2019-10-03T11:28:55Z</time>
      </trkpt>
      <trkpt lat="43.54676" lon="6.85702">
        <ele>300</ele>
        <time>2019-10-03T11:29:16Z</time>
      </trkpt>
      <trkpt lat="43.54458" lon="6.85675">
        <ele>272</ele>
        <time>2019-10-03T11:30:07Z</time>
      </trkpt>
      <trkpt lat="43.5432" lon="6.85704">
        <ele>260</ele>
        <time>2019-10-03T11:30:40Z</time>
      </trkpt>
      <trkpt lat="43.54237" lon="6.85793">
        <ele>248</ele>
        <time>2019-10-03T11:31:05Z</time>
      </trkpt>
      <trkpt lat="43.54237" lon="6.85866">
        <ele>243</ele>
        <time>2019-10-03T11:31:17Z</time>
      </trkpt>
      <trkpt lat="43.54292" lon="6.85924">
        <ele>241</ele>
        <time>2019-10-03T11:31:33Z</time>
      </trkpt>
      <trkpt lat="43.5435" lon="6.85948">
        <ele>244</ele>
        <time>2019-10-03T11:31:47Z</time>
      </trkpt>
      <trkpt lat="43.54363" lon="6.86004">
        <ele>226</ele>
        <time>2019-10-03T11:31:57Z</time>
      </trkpt>
      <trkpt lat="43.54418" lon="6.86085">
        <ele>229</ele>
        <time>2019-10-03T11:32:16Z</time>
      </trkpt>
      <trkpt lat="43.54259" lon="6.86126">
        <ele>210</ele>
        <time>2019-10-03T11:32:54Z</time>
      </trkpt>
      <trkpt lat="43.54209" lon="6.8617">
        <ele>205</ele>
        <time>2019-10-03T11:33:08Z</time>
      </trkpt>
      <trkpt lat="43.5427" lon="6.86372">
        <ele>191</ele>
        <time>2019-10-03T11:33:45Z</time>
      </trkpt>
      <trkpt lat="43.54164" lon="6.86267">
        <ele>185</ele>
        <time>2019-10-03T11:34:15Z</time>
      </trkpt>
      <trkpt lat="43.54054" lon="6.86296">
        <ele>170</ele>
        <time>2019-10-03T11:34:41Z</time>
      </trkpt>
      <trkpt lat="43.53814" lon="6.86262">
        <ele>161</ele>
        <time>2019-10-03T11:35:38Z</time>
      </trkpt>
      <trkpt lat="43.53722" lon="6.86338">
        <ele>154</ele>
        <time>2019-10-03T11:36:03Z</time>
      </trkpt>
      <trkpt lat="43.53764" lon="6.86446">
        <ele>163</ele>
        <time>2019-10-03T11:36:23Z</time>
      </trkpt>
      <trkpt lat="43.53667" lon="6.86499">
        <ele>146</ele>
        <time>2019-10-03T11:36:48Z</time>
      </trkpt>
      <trkpt lat="43.53636" lon="6.86586">
        <ele>140</ele>
        <time>2019-10-03T11:37:04Z</time>
      </trkpt>
      <trkpt lat="43.53642" lon="6.86778">
        <ele>131</ele>
        <time>2019-10-03T11:37:37Z</time>
      </trkpt>
      <trkpt lat="43.53666" lon="6.86836">
        <ele>128</ele>
        <time>2019-10-03T11:37:48Z</time>
      </trkpt>
      <trkpt lat="43.53678" lon="6.86884">
        <ele>117</ele>
        <time>2019-10-03T11:37:57Z</time>
      </trkpt>
      <trkpt lat="43.53822" lon="6.8684">
        <ele>109</ele>
        <time>2019-10-03T11:38:31Z</time>
      </trkpt>
      <trkpt lat="43.53922" lon="6.86775">
        <ele>107</ele>
        <time>2019-10-03T11:38:57Z</time>
      </trkpt>
      <trkpt lat="43.5393" lon="6.86851">
        <ele>104</ele>
        <time>2019-10-03T11:39:10Z</time>
      </trkpt>
      <trkpt lat="43.53911" lon="6.8691">
        <ele>104</ele>
        <time>2019-10-03T11:39:21Z</time>
      </trkpt>
      <trkpt lat="43.53847" lon="6.86954">
        <ele>104</ele>
        <time>2019-10-03T11:39:38Z</time>
      </trkpt>
      <trkpt lat="43.53812" lon="6.87018">
        <ele>107</ele>
        <time>2019-10-03T11:39:51Z</time>
      </trkpt>
      <trkpt lat="43.53831" lon="6.87077">
        <ele>118</ele>
        <time>2019-10-03T11:40:02Z</time>
      </trkpt>
      <trkpt lat="43.53777" lon="6.87146">
        <ele>115</ele>
        <time>2019-10-03T11:40:19Z</time>
      </trkpt>
      <trkpt lat="43.53777" lon="6.87204">
        <ele>116</ele>
        <time>2019-10-03T11:40:29Z</time>
      </trkpt>
      <trkpt lat="43.53557" lon="6.87388">
        <ele>94</ele>
        <time>2019-10-03T11:41:29Z</time>
      </trkpt>
      <trkpt lat="43.5341" lon="6.87434">
        <ele>92</ele>
        <time>2019-10-03T11:42:04Z</time>
      </trkpt>
      <trkpt lat="43.5339" lon="6.8751">
        <ele>82</ele>
        <time>2019-10-03T11:42:18Z</time>
      </trkpt>
      <trkpt lat="43.53281" lon="6.87548">
        <ele>77</ele>
        <time>2019-10-03T11:42:44Z</time>
      </trkpt>
      <trkpt lat="43.53247" lon="6.87383">
        <ele>76</ele>
        <time>2019-10-03T11:43:13Z</time>
      </trkpt>
      <trkpt lat="43.53268" lon="6.87313">
        <ele>78</ele>
        <time>2019-10-03T11:43:26Z</time>
      </trkpt>
      <trkpt lat="43.53257" lon="6.87238">
        <ele>72</ele>
        <time>2019-10-03T11:43:39Z</time>
      </trkpt>
      <trkpt lat="43.53341" lon="6.87118">
        <ele>77</ele>
        <time>2019-10-03T11:44:07Z</time>
      </trkpt>
      <trkpt lat="43.53371" lon="6.86948">
        <ele>76</ele>
        <time>2019-10-03T11:44:37Z</time>
      </trkpt>
      <trkpt lat="43.53359" lon="6.8684">
        <ele>76</ele>
        <time>2019-10-03T11:44:55Z</time>
      </trkpt>
      <trkpt lat="43.53263" lon="6.86785">
        <ele>74</ele>
        <time>2019-10-03T11:45:20Z</time>
      </trkpt>
      <trkpt lat="43.53231" lon="6.8662">
        <ele>74</ele>
        <time>2019-10-03T11:45:49Z</time>
      </trkpt>
      <trkpt lat="43.53252" lon="6.86337">
        <ele>79</ele>
        <time>2019-10-03T11:46:37Z</time>
      </trkpt>
      <trkpt lat="43.53169" lon="6.86254">
        <ele>79</ele>
        <time>2019-10-03T11:47:01Z</time>
      </trkpt>
      <trkpt lat="43.53092" lon="6.86278">
        <ele>81</ele>
        <time>2019-10-03T11:47:19Z</time>
      </trkpt>
      <trkpt lat="43.52991" lon="6.86277">
        <ele>90</ele>
        <time>2019-10-03T11:47:43Z</time>
      </trkpt>
      <trkpt lat="43.52922" lon="6.86305">
        <ele>98</ele>
        <time>2019-10-03T11:48:00Z</time>
      </trkpt>
      <trkpt lat="43.5292" lon="6.8623">
        <ele>97</ele>
        <time>2019-10-03T11:48:12Z</time>
      </trkpt>
      <trkpt lat="43.52798" lon="6.86198">
        <ele>114</ele>
        <time>2019-10-03T11:48:41Z</time>
      </trkpt>
      <trkpt lat="43.52744" lon="6.86335">
        <ele>128</ele>
        <time>2019-10-03T11:49:08Z</time>
      </trkpt>
      <trkpt lat="43.52704" lon="6.86593">
        <ele>148</ele>
        <time>2019-10-03T11:49:52Z</time>
      </trkpt>
      <trkpt lat="43.52721" lon="6.86679">
        <ele>151</ele>
        <time>2019-10-03T11:50:07Z</time>
      </trkpt>
      <trkpt lat="43.52691" lon="6.86983">
        <ele>160</ele>
        <time>2019-10-03T11:50:59Z</time>
      </trkpt>
      <trkpt lat="43.52618" lon="6.87038">
        <ele>175</ele>
        <time>2019-10-03T11:51:19Z</time>
      </trkpt>
      <trkpt lat="43.52588" lon="6.87099">
        <ele>175</ele>
        <time>2019-10-03T11:51:31Z</time>
      </trkpt>
      <trkpt lat="43.52542" lon="6.87107">
        <ele>184</ele>
        <time>2019-10-03T11:51:42Z</time>
      </trkpt>
      <trkpt lat="43.52556" lon="6.87188">
        <ele>174</ele>
        <time>2019-10-03T11:51:56Z</time>
      </trkpt>
      <trkpt lat="43.52492" lon="6.87249">
        <ele>184</ele>
        <time>2019-10-03T11:52:14Z</time>
      </trkpt>
      <trkpt lat="43.52421" lon="6.87411">
        <ele>171</ele>
        <time>2019-10-03T11:52:46Z</time>
      </trkpt>
      <trkpt lat="43.52343" lon="6.87491">
        <ele>169</ele>
        <time>2019-10-03T11:53:09Z</time>
      </trkpt>
      <trkpt lat="43.5226" lon="6.8754">
        <ele>166</ele>
        <time>2019-10-03T11:53:30Z</time>
      </trkpt>
      <trkpt lat="43.52195" lon="6.87558">
        <ele>166</ele>
        <time>2019-10-03T11:53:46Z</time>
      </trkpt>
      <trkpt lat="43.5214" lon="6.87539">
        <ele>163</ele>
        <time>2019-10-03T11:53:59Z</time>
      </trkpt>
      <trkpt lat="43.52138" lon="6.87488">
        <ele>160</ele>
        <time>2019-10-03T11:54:08Z</time>
      </trkpt>
      <trkpt lat="43.52091" lon="6.87452">
        <ele>153</ele>
        <time>2019-10-03T11:54:20Z</time>
      </trkpt>
      <trkpt lat="43.52076" lon="6.87555">
        <ele>160</ele>
        <time>2019-10-03T11:54:38Z</time>
      </trkpt>
      <trkpt lat="43.52026" lon="6.87511">
        <ele>157</ele>
        <time>2019-10-03T11:54:52Z</time>
      </trkpt>
      <trkpt lat="43.52036" lon="6.8744">
        <ele>148</ele>
        <time>2019-10-03T11:55:04Z</time>
      </trkpt>
      <trkpt lat="43.51994" lon="6.8741">
        <ele>141</ele>
        <time>2019-10-03T11:55:15Z</time>
      </trkpt>
      <trkpt lat="43.51916" lon="6.87428">
        <ele>128</ele>
        <time>2019-10-03T11:55:34Z</time>
      </trkpt>
      <trkpt lat="43.51955" lon="6.87325">
        <ele>120</ele>
        <time>2019-10-03T11:55:53Z</time>
      </trkpt>
      <trkpt lat="43.5196" lon="6.873">
        <ele>118</ele>
        <time>2019-10-03T11:55:58Z</time>
      </trkpt>
      <trkpt lat="43.51954" lon="6.87251">
        <ele>111</ele>
        <time>2019-10-03T11:56:06Z</time>
      </trkpt>
      <trkpt lat="43.51913" lon="6.87207">
        <ele>105</ele>
        <time>2019-10-03T11:56:18Z</time>
      </trkpt>
      <trkpt lat="43.51877" lon="6.87197">
        <ele>112</ele>
        <time>2019-10-03T11:56:27Z</time>
      </trkpt>
      <trkpt lat="43.51842" lon="6.8731">
        <ele>113</ele>
        <time>2019-10-03T11:56:48Z</time>
      </trkpt>
      <trkpt lat="43.51806" lon="6.87355">
        <ele>111</ele>
        <time>2019-10-03T11:56:59Z</time>
      </trkpt>
      <trkpt lat="43.51763" lon="6.87256">
        <ele>131</ele>
        <time>2019-10-03T11:57:18Z</time>
      </trkpt>
      <trkpt lat="43.51719" lon="6.87271">
        <ele>133</ele>
        <time>2019-10-03T11:57:29Z</time>
      </trkpt>
      <trkpt lat="43.51675" lon="6.87252">
        <ele>139</ele>
        <time>2019-10-03T11:57:40Z</time>
      </trkpt>
      <trkpt lat="43.51657" lon="6.87312">
        <ele>134</ele>
        <time>2019-10-03T11:57:51Z</time>
      </trkpt>
      <trkpt lat="43.51628" lon="6.87356">
        <ele>136</ele>
        <time>2019-10-03T11:58:01Z</time>
      </trkpt>
      <trkpt lat="43.51706" lon="6.87434">
        <ele>114</ele>
        <time>2019-10-03T11:58:23Z</time>
      </trkpt>
      <trkpt lat="43.51678" lon="6.87482">
        <ele>121</ele>
        <time>2019-10-03T11:58:34Z</time>
      </trkpt>
      <trkpt lat="43.51758" lon="6.87519">
        <ele>107</ele>
        <time>2019-10-03T11:58:54Z</time>
      </trkpt>
      <trkpt lat="43.51801" lon="6.87576">
        <ele>106</ele>
        <time>2019-10-03T11:59:07Z</time>
      </trkpt>
      <trkpt lat="43.51782" lon="6.87672">
        <ele>101</ele>
        <time>2019-10-03T11:59:24Z</time>
      </trkpt>
      <trkpt lat="43.51788" lon="6.87728">
        <ele>99</ele>
        <time>2019-10-03T11:59:34Z</time>
      </trkpt>
      <trkpt lat="43.51825" lon="6.87779">
        <ele>95</ele>
        <time>2019-10-03T11:59:46Z</time>
      </trkpt>
      <trkpt lat="43.51875" lon="6.8787">
        <ele>100</ele>
        <time>2019-10-03T12:00:05Z</time>
      </trkpt>
      <trkpt lat="43.51916" lon="6.88005">
        <ele>84</ele>
        <time>2019-10-03T12:00:30Z</time>
      </trkpt>
      <trkpt lat="43.51986" lon="6.88069">
        <ele>83</ele>
        <time>2019-10-03T12:00:50Z</time>
      </trkpt>
      <trkpt lat="43.52048" lon="6.88185">
        <ele>81</ele>
        <time>2019-10-03T12:01:14Z</time>
      </trkpt>
      <trkpt lat="43.52093" lon="6.88284">
        <ele>81</ele>
        <time>2019-10-03T12:01:34Z</time>
      </trkpt>
      <trkpt lat="43.52116" lon="6.88357">
        <ele>81</ele>
        <time>2019-10-03T12:01:47Z</time>
      </trkpt>
      <trkpt lat="43.52079" lon="6.88409">
        <ele>74</ele>
        <time>2019-10-03T12:02:00Z</time>
      </trkpt>
      <trkpt lat="43.52066" lon="6.88614">
        <ele>76</ele>
        <time>2019-10-03T12:02:35Z</time>
      </trkpt>
      <trkpt lat="43.52028" lon="6.88658">
        <ele>75</ele>
        <time>2019-10-03T12:02:46Z</time>
      </trkpt>
      <trkpt lat="43.5211" lon="6.88953">
        <ele>70</ele>
        <time>2019-10-03T12:03:40Z</time>
      </trkpt>
      <trkpt lat="43.52134" lon="6.89091">
        <ele>67</ele>
        <time>2019-10-03T12:04:04Z</time>
      </trkpt>
      <trkpt lat="43.52133" lon="6.89257">
        <ele>62</ele>
        <time>2019-10-03T12:04:32Z</time>
      </trkpt>
      <trkpt lat="43.52225" lon="6.89463">
        <ele>52</ele>
        <time>2019-10-03T12:05:13Z</time>
      </trkpt>
      <trkpt lat="43.52262" lon="6.89517">
        <ele>51</ele>
        <time>2019-10-03T12:05:25Z</time>
      </trkpt>
      <trkpt lat="43.52317" lon="6.8953">
        <ele>53</ele>
        <time>2019-10-03T12:05:38Z</time>
      </trkpt>
      <trkpt lat="43.52356" lon="6.89596">
        <ele>53</ele>
        <time>2019-10-03T12:05:53Z</time>
      </trkpt>
      <trkpt lat="43.52436" lon="6.89595">
        <ele>49</ele>
        <time>2019-10-03T12:06:12Z</time>
      </trkpt>
      <trkpt lat="43.52501" lon="6.8961">
        <ele>54</ele>
        <time>2019-10-03T12:06:27Z</time>
      </trkpt>
      <trkpt lat="43.52545" lon="6.89627">
        <ele>57</ele>
        <time>2019-10-03T12:06:38Z</time>
      </trkpt>
      <trkpt lat="43.5259" lon="6.89632">
        <ele>57</ele>
        <time>2019-10-03T12:06:48Z</time>
      </trkpt>
      <trkpt lat="43.52614" lon="6.89729">
        <ele>61</ele>
        <time>2019-10-03T12:07:06Z</time>
      </trkpt>
      <trkpt lat="43.52595" lon="6.89804">
        <ele>65</ele>
        <time>2019-10-03T12:07:19Z</time>
      </trkpt>
      <trkpt lat="43.52582" lon="6.89883">
        <ele>64</ele>
        <time>2019-10-03T12:07:33Z</time>
      </trkpt>
      <trkpt lat="43.52549" lon="6.90004">
        <ele>68</ele>
        <time>2019-10-03T12:07:55Z</time>
      </trkpt>
      <trkpt lat="43.52543" lon="6.90118">
        <ele>69</ele>
        <time>2019-10-03T12:08:14Z</time>
      </trkpt>
      <trkpt lat="43.52563" lon="6.90199">
        <ele>68</ele>
        <time>2019-10-03T12:08:28Z</time>
      </trkpt>
      <trkpt lat="43.52478" lon="6.90351">
        <ele>67</ele>
        <time>2019-10-03T12:09:01Z</time>
      </trkpt>
      <trkpt lat="43.52451" lon="6.90368">
        <ele>65</ele>
        <time>2019-10-03T12:09:08Z</time>
      </trkpt>
      <trkpt lat="43.52419" lon="6.90462">
        <ele>60</ele>
        <time>2019-10-03T12:09:25Z</time>
      </trkpt>
      <trkpt lat="43.52387" lon="6.90495">
        <ele>54</ele>
        <time>2019-10-03T12:09:35Z</time>
      </trkpt>
      <trkpt lat="43.52394" lon="6.90603">
        <ele>49</ele>
        <time>2019-10-03T12:09:53Z</time>
      </trkpt>
      <trkpt lat="43.52388" lon="6.90693">
        <ele>39</ele>
        <time>2019-10-03T12:10:08Z</time>
      </trkpt>
      <trkpt lat="43.5241" lon="6.90684">
        <ele>42</ele>
        <time>2019-10-03T12:10:14Z</time>
      </trkpt>
      <trkpt lat="43.52432" lon="6.9071">
        <ele>41</ele>
        <time>2019-10-03T12:10:21Z</time>
      </trkpt>
      <trkpt lat="43.52452" lon="6.90701">
        <ele>44</ele>
        <time>2019-10-03T12:10:25Z</time>
      </trkpt>
      <trkpt lat="43.5246" lon="6.90747">
        <ele>39</ele>
        <time>2019-10-03T12:10:34Z</time>
      </trkpt>
      <trkpt lat="43.5249" lon="6.90774">
        <ele>41</ele>
        <time>2019-10-03T12:10:42Z</time>
      </trkpt>
      <trkpt lat="43.52481" lon="6.90817">
        <ele>36</ele>
        <time>2019-10-03T12:10:49Z</time>
      </trkpt>
      <trkpt lat="43.52485" lon="6.90857">
        <ele>35</ele>
        <time>2019-10-03T12:10:56Z</time>
      </trkpt>
      <trkpt lat="43.52453" lon="6.90871">
        <ele>29</ele>
        <time>2019-10-03T12:11:04Z</time>
      </trkpt>
      <trkpt lat="43.5248" lon="6.91016">
        <ele>27</ele>
        <time>2019-10-03T12:11:29Z</time>
      </trkpt>
      <trkpt lat="43.52442" lon="6.91079">
        <ele>19</ele>
        <time>2019-10-03T12:11:43Z</time>
      </trkpt>
      <trkpt lat="43.52396" lon="6.91025">
        <ele>17</ele>
        <time>2019-10-03T12:11:57Z</time>
      </trkpt>
      <trkpt lat="43.52371" lon="6.91005">
        <ele>17</ele>
        <time>2019-10-03T12:12:04Z</time>
      </trkpt>
      <trkpt lat="43.52305" lon="6.90938">
        <ele>22</ele>
        <time>2019-10-03T12:12:23Z</time>
      </trkpt>
      <trkpt lat="43.5222" lon="6.90932">
        <ele>24</ele>
        <time>2019-10-03T12:12:43Z</time>
      </trkpt>
      <trkpt lat="43.52125" lon="6.90917">
        <ele>26</ele>
        <time>2019-10-03T12:13:06Z</time>
      </trkpt>
      <trkpt lat="43.51983" lon="6.90939">
        <ele>29</ele>
        <time>2019-10-03T12:13:39Z</time>
      </trkpt>
      <trkpt lat="43.51884" lon="6.90825">
        <ele>31</ele>
        <time>2019-10-03T12:14:09Z</time>
      </trkpt>
      <trkpt lat="43.51803" lon="6.90751">
        <ele>41</ele>
        <time>2019-10-03T12:14:32Z</time>
      </trkpt>
      <trkpt lat="43.5175" lon="6.90776">
        <ele>54</ele>
        <time>2019-10-03T12:14:45Z</time>
      </trkpt>
      <trkpt lat="43.51726" lon="6.90816">
        <ele>48</ele>
        <time>2019-10-03T12:14:54Z</time>
      </trkpt>
      <trkpt lat="43.51556" lon="6.90686">
        <ele>44</ele>
        <time>2019-10-03T12:15:39Z</time>
      </trkpt>
      <trkpt lat="43.51498" lon="6.90686">
        <ele>40</ele>
        <time>2019-10-03T12:15:53Z</time>
      </trkpt>
      <trkpt lat="43.51384" lon="6.90753">
        <ele>43</ele>
        <time>2019-10-03T12:16:21Z</time>
      </trkpt>
      <trkpt lat="43.51309" lon="6.90742">
        <ele>43</ele>
        <time>2019-10-03T12:16:39Z</time>
      </trkpt>
      <trkpt lat="43.51255" lon="6.90821">
        <ele>50</ele>
        <time>2019-10-03T12:16:57Z</time>
      </trkpt>
      <trkpt lat="43.51197" lon="6.90879">
        <ele>54</ele>
        <time>2019-10-03T12:17:14Z</time>
      </trkpt>
      <trkpt lat="43.51098" lon="6.90958">
        <ele>59</ele>
        <time>2019-10-03T12:17:41Z</time>
      </trkpt>
      <trkpt lat="43.51003" lon="6.91059">
        <ele>63</ele>
        <time>2019-10-03T12:18:09Z</time>
      </trkpt>
      <trkpt lat="43.50836" lon="6.91072">
        <ele>68</ele>
        <time>2019-10-03T12:18:48Z</time>
      </trkpt>
      <trkpt lat="43.50534" lon="6.91117">
        <ele>91</ele>
        <time>2019-10-03T12:19:59Z</time>
      </trkpt>
      <trkpt lat="43.50494" lon="6.91152">
        <ele>103</ele>
        <time>2019-10-03T12:20:10Z</time>
      </trkpt>
      <trkpt lat="43.50574" lon="6.91198">
        <ele>101</ele>
        <time>2019-10-03T12:20:30Z</time>
      </trkpt>
      <trkpt lat="43.50631" lon="6.91269">
        <ele>106</ele>
        <time>2019-10-03T12:20:48Z</time>
      </trkpt>
      <trkpt lat="43.50604" lon="6.91302">
        <ele>111</ele>
        <time>2019-10-03T12:20:57Z</time>
      </trkpt>
      <trkpt lat="43.50631" lon="6.91373">
        <ele>109</ele>
        <time>2019-10-03T12:21:10Z</time>
      </trkpt>
      <trkpt lat="43.50625" lon="6.91458">
        <ele>113</ele>
        <time>2019-10-03T12:21:25Z</time>
      </trkpt>
      <trkpt lat="43.5064" lon="6.91523">
        <ele>110</ele>
        <time>2019-10-03T12:21:36Z</time>
      </trkpt>
      <trkpt lat="43.50667" lon="6.91594">
        <ele>101</ele>
        <time>2019-10-03T12:21:50Z</time>
      </trkpt>
      <trkpt lat="43.5074" lon="6.91662">
        <ele>88</ele>
        <time>2019-10-03T12:22:10Z</time>
      </trkpt>
      <trkpt lat="43.50741" lon="6.91725">
        <ele>92</ele>
        <time>2019-10-03T12:22:21Z</time>
      </trkpt>
      <trkpt lat="43.50783" lon="6.9169">
        <ele>95</ele>
        <time>2019-10-03T12:22:33Z</time>
      </trkpt>
      <trkpt lat="43.50931" lon="6.91504">
        <ele>83</ele>
        <time>2019-10-03T12:23:19Z</time>
      </trkpt>
      <trkpt lat="43.51045" lon="6.91476">
        <ele>81</ele>
        <time>2019-10-03T12:23:46Z</time>
      </trkpt>
      <trkpt lat="43.51151" lon="6.91435">
        <ele>76</ele>
        <time>2019-10-03T12:24:12Z</time>
      </trkpt>
      <trkpt lat="43.51288" lon="6.91499">
        <ele>75</ele>
        <time>2019-10-03T12:24:46Z</time>
      </trkpt>
      <trkpt lat="43.51169" lon="6.91489">
        <ele>86</ele>
        <time>2019-10-03T12:25:14Z</time>
      </trkpt>
      <trkpt lat="43.5095" lon="6.91587">
        <ele>106</ele>
        <time>2019-10-03T12:26:07Z</time>
      </trkpt>
      <trkpt lat="43.51082" lon="6.91613">
        <ele>123</ele>
        <time>2019-10-03T12:26:39Z</time>
      </trkpt>
      <trkpt lat="43.50909" lon="6.91649">
        <ele>123</ele>
        <time>2019-10-03T12:27:19Z</time>
      </trkpt>
      <trkpt lat="43.50872" lon="6.91722">
        <ele>127</ele>
        <time>2019-10-03T12:27:34Z</time>
      </trkpt>
      <trkpt lat="43.50958" lon="6.91679">
        <ele>141</ele>
        <time>2019-10-03T12:27:56Z</time>
      </trkpt>
      <trkpt lat="43.51073" lon="6.91684">
        <ele>149</ele>
        <time>2019-10-03T12:28:23Z</time>
      </trkpt>
      <trkpt lat="43.50956" lon="6.91712">
        <ele>151</ele>
        <time>2019-10-03T12:28:50Z</time>
      </trkpt>
      <trkpt lat="43.5092" lon="6.91759">
        <ele>156</ele>
        <time>2019-10-03T12:29:02Z</time>
      </trkpt>
      <trkpt lat="43.50914" lon="6.91907">
        <ele>171</ele>
        <time>2019-10-03T12:29:27Z</time>
      </trkpt>
      <trkpt lat="43.50899" lon="6.92036">
        <ele>184</ele>
        <time>2019-10-03T12:29:49Z</time>
      </trkpt>
      <trkpt lat="43.50783" lon="6.92194">
        <ele>190</ele>
        <time>2019-10-03T12:30:27Z</time>
      </trkpt>
      <trkpt lat="43.5059" lon="6.9224">
        <ele>192</ele>
        <time>2019-10-03T12:31:13Z</time>
      </trkpt>
      <trkpt lat="43.50534" lon="6.92493">
        <ele>204</ele>
        <time>2019-10-03T12:31:58Z</time>
      </trkpt>
      <trkpt lat="43.50457" lon="6.92495">
        <ele>190</ele>
        <time>2019-10-03T12:32:16Z</time>
      </trkpt>
      <trkpt lat="43.50415" lon="6.92446">
        <ele>186</ele>
        <time>2019-10-03T12:32:29Z</time>
      </trkpt>
      <trkpt lat="43.50287" lon="6.92435">
        <ele>195</ele>
        <time>2019-10-03T12:32:59Z</time>
      </trkpt>
      <trkpt lat="43.50246" lon="6.9244">
        <ele>195</ele>
        <time>2019-10-03T12:33:08Z</time>
      </trkpt>
      <trkpt lat="43.50204" lon="6.92492">
        <ele>197</ele>
        <time>2019-10-03T12:33:21Z</time>
      </trkpt>
      <trkpt lat="43.50239" lon="6.92737">
        <ele>179</ele>
        <time>2019-10-03T12:34:04Z</time>
      </trkpt>
      <trkpt lat="43.50285" lon="6.92929">
        <ele>166</ele>
        <time>2019-10-03T12:34:38Z</time>
      </trkpt>
      <trkpt lat="43.50267" lon="6.92963">
        <ele>175</ele>
        <time>2019-10-03T12:34:45Z</time>
      </trkpt>
      <trkpt lat="43.50279" lon="6.9305">
        <ele>165</ele>
        <time>2019-10-03T12:35:00Z</time>
      </trkpt>
      <trkpt lat="43.50319" lon="6.93103">
        <ele>148</ele>
        <time>2019-10-03T12:35:13Z</time>
      </trkpt>
      <trkpt lat="43.50359" lon="6.93118">
        <ele>135</ele>
        <time>2019-10-03T12:35:23Z</time>
      </trkpt>
      <trkpt lat="43.50255" lon="6.93171">
        <ele>152</ele>
        <time>2019-10-03T12:35:49Z</time>
      </trkpt>
      <trkpt lat="43.50387" lon="6.93487">
        <ele>97</ele>
        <time>2019-10-03T12:36:50Z</time>
      </trkpt>
      <trkpt lat="43.50498" lon="6.93558">
        <ele>89</ele>
        <time>2019-10-03T12:37:19Z</time>
      </trkpt>
      <trkpt lat="43.50522" lon="6.93586">
        <ele>86</ele>
        <time>2019-10-03T12:37:26Z</time>
      </trkpt>
      <trkpt lat="43.50593" lon="6.93601">
        <ele>75</ele>
        <time>2019-10-03T12:37:43Z</time>
      </trkpt>
      <trkpt lat="43.5055" lon="6.93649">
        <ele>72</ele>
        <time>2019-10-03T12:37:56Z</time>
      </trkpt>
      <trkpt lat="43.5065" lon="6.937">
        <ele>53</ele>
        <time>2019-10-03T12:38:21Z</time>
      </trkpt>
      <trkpt lat="43.5071" lon="6.93765">
        <ele>36</ele>
        <time>2019-10-03T12:38:39Z</time>
      </trkpt>
      <trkpt lat="43.50723" lon="6.93624">
        <ele>29</ele>
        <time>2019-10-03T12:39:03Z</time>
      </trkpt>
      <trkpt lat="43.50673" lon="6.93487">
        <ele>30</ele>
        <time>2019-10-03T12:39:29Z</time>
      </trkpt>
      <trkpt lat="43.50752" lon="6.93592">
        <ele>17</ele>
        <time>2019-10-03T12:39:54Z</time>
      </trkpt>
      <trkpt lat="43.50796" lon="6.93721">
        <ele>20</ele>
        <time>2019-10-03T12:40:19Z</time>
      </trkpt>
      <trkpt lat="43.50848" lon="6.93801">
        <ele>10</ele>
        <time>2019-10-03T12:40:37Z</time>
      </trkpt>
    </trkseg>
  </trk>
</gpx>